<?xml version="1.0" encoding="UTF-8" standalone="no" ?><gpx xmlns="http://www.topografix.com/GPX/1/1" xmlns:gpxx="http://www.garmin.com/xmlschemas/GpxExtensions/v3" xmlns:wptx1="http://www.garmin.com/xmlschemas/WaypointExtension/v1" xmlns:gpxtpx="http://www.garmin.com/xmlschemas/TrackPointExtension/v1" creator="Dakota 20" version="1.1" xmlns:xsi="http://www.w3.org/2001/XMLSchema-instance" xsi:schemaLocation="http://www.topografix.com/GPX/1/1 http://www.topografix.com/GPX/1/1/gpx.xsd http://www.garmin.com/xmlschemas/GpxExtensions/v3 http://www8.garmin.com/xmlschemas/GpxExtensionsv3.xsd http://www.garmin.com/xmlschemas/WaypointExtension/v1 http://www8.garmin.com/xmlschemas/WaypointExtensionv1.xsd http://www.garmin.com/xmlschemas/TrackPointExtension/v1 http://www.garmin.com/xmlschemas/TrackPointExtensionv1.xsd"><metadata><link href="http://www.garmin.com"><text>Garmin International</text></link><time>2015-06-03T17:04:25Z</time></metadata><trk><name>Current Track: 03 JUN 2015 10:02</name><extensions><gpxx:TrackExtension><gpxx:DisplayColor>Cyan</gpxx:DisplayColor></gpxx:TrackExtension></extensions><trkseg><trkpt lat="51.7780207191" lon="-2.0929471403"><ele>237.10</ele><time>2015-06-03T09:02:09Z</time></trkpt><trkpt lat="51.7780203838" lon="-2.0929479785"><ele>238.54</ele><time>2015-06-03T09:02:12Z</time></trkpt><trkpt lat="51.7780248262" lon="-2.0928977709"><ele>237.58</ele><time>2015-06-03T09:02:22Z</time></trkpt><trkpt lat="51.7780721840" lon="-2.0927429572"><ele>236.62</ele><time>2015-06-03T09:02:34Z</time></trkpt><trkpt lat="51.7781845853" lon="-2.0925566275"><ele>235.66</ele><time>2015-06-03T09:02:50Z</time></trkpt><trkpt lat="51.7783160135" lon="-2.0923766680"><ele>235.18</ele><time>2015-06-03T09:03:05Z</time></trkpt><trkpt lat="51.7783441767" lon="-2.0923326630"><ele>234.22</ele><time>2015-06-03T09:03:22Z</time></trkpt><trkpt lat="51.7784904409" lon="-2.0924803521"><ele>233.74</ele><time>2015-06-03T09:03:38Z</time></trkpt><trkpt lat="51.7785107251" lon="-2.0925264526"><ele>233.26</ele><time>2015-06-03T09:03:41Z</time></trkpt><trkpt lat="51.7785635311" lon="-2.0928036422"><ele>232.78</ele><time>2015-06-03T09:03:59Z</time></trkpt><trkpt lat="51.7786253057" lon="-2.0930610504"><ele>232.30</ele><time>2015-06-03T09:04:14Z</time></trkpt><trkpt lat="51.7786711548" lon="-2.0933840051"><ele>232.30</ele><time>2015-06-03T09:04:30Z</time></trkpt><trkpt lat="51.7786999047" lon="-2.0936999191"><ele>232.78</ele><time>2015-06-03T09:04:48Z</time></trkpt><trkpt lat="51.7786969710" lon="-2.0937205385"><ele>232.78</ele><time>2015-06-03T09:04:49Z</time></trkpt><trkpt lat="51.7786995694" lon="-2.0940614305"><ele>232.78</ele><time>2015-06-03T09:05:05Z</time></trkpt><trkpt lat="51.7786909360" lon="-2.0942776836"><ele>233.74</ele><time>2015-06-03T09:05:18Z</time></trkpt><trkpt lat="51.7787004914" lon="-2.0943092834"><ele>234.22</ele><time>2015-06-03T09:05:20Z</time></trkpt><trkpt lat="51.7787162494" lon="-2.0943841338"><ele>234.22</ele><time>2015-06-03T09:05:24Z</time></trkpt><trkpt lat="51.7787411436" lon="-2.0946039073"><ele>235.18</ele><time>2015-06-03T09:05:38Z</time></trkpt><trkpt lat="51.7787604220" lon="-2.0946995448"><ele>235.66</ele><time>2015-06-03T09:05:44Z</time></trkpt><trkpt lat="51.7787927762" lon="-2.0949639101"><ele>236.62</ele><time>2015-06-03T09:05:59Z</time></trkpt><trkpt lat="51.7788000684" lon="-2.0950431190"><ele>236.62</ele><time>2015-06-03T09:06:14Z</time></trkpt><trkpt lat="51.7788082827" lon="-2.0950452145"><ele>237.10</ele><time>2015-06-03T09:06:37Z</time></trkpt><trkpt lat="51.7788330093" lon="-2.0952212345"><ele>239.02</ele><time>2015-06-03T09:06:53Z</time></trkpt><trkpt lat="51.7788363621" lon="-2.0952335559"><ele>243.35</ele><time>2015-06-03T09:06:54Z</time></trkpt><trkpt lat="51.7788377870" lon="-2.0952493139"><ele>238.06</ele><time>2015-06-03T09:06:55Z</time></trkpt><trkpt lat="51.7788640223" lon="-2.0954979211"><ele>238.54</ele><time>2015-06-03T09:07:08Z</time></trkpt><trkpt lat="51.7788642738" lon="-2.0957709197"><ele>238.06</ele><time>2015-06-03T09:07:25Z</time></trkpt><trkpt lat="51.7788889166" lon="-2.0960165933"><ele>238.54</ele><time>2015-06-03T09:07:41Z</time></trkpt><trkpt lat="51.7788764276" lon="-2.0963770151"><ele>238.54</ele><time>2015-06-03T09:07:55Z</time></trkpt><trkpt lat="51.7788675427" lon="-2.0966184139"><ele>238.54</ele><time>2015-06-03T09:08:12Z</time></trkpt><trkpt lat="51.7788870726" lon="-2.0968291350"><ele>238.06</ele><time>2015-06-03T09:08:26Z</time></trkpt><trkpt lat="51.7789115477" lon="-2.0971338172"><ele>238.54</ele><time>2015-06-03T09:08:43Z</time></trkpt><trkpt lat="51.7789219413" lon="-2.0974172093"><ele>238.54</ele><time>2015-06-03T09:08:59Z</time></trkpt><trkpt lat="51.7789281439" lon="-2.0975477993"><ele>239.02</ele><time>2015-06-03T09:09:15Z</time></trkpt><trkpt lat="51.7789330892" lon="-2.0975287724"><ele>238.54</ele><time>2015-06-03T09:09:35Z</time></trkpt><trkpt lat="51.7789351847" lon="-2.0975439437"><ele>238.54</ele><time>2015-06-03T09:09:57Z</time></trkpt><trkpt lat="51.7789354362" lon="-2.0975449495"><ele>238.06</ele><time>2015-06-03T09:10:01Z</time></trkpt><trkpt lat="51.7790139746" lon="-2.0974859409"><ele>237.58</ele><time>2015-06-03T09:10:11Z</time></trkpt><trkpt lat="51.7791800201" lon="-2.0975328796"><ele>235.66</ele><time>2015-06-03T09:10:26Z</time></trkpt><trkpt lat="51.7792206723" lon="-2.0975682512"><ele>236.14</ele><time>2015-06-03T09:10:36Z</time></trkpt><trkpt lat="51.7792968638" lon="-2.0977397449"><ele>236.14</ele><time>2015-06-03T09:10:47Z</time></trkpt><trkpt lat="51.7793080118" lon="-2.0978607796"><ele>236.14</ele><time>2015-06-03T09:10:53Z</time></trkpt><trkpt lat="51.7793642543" lon="-2.0981207862"><ele>235.66</ele><time>2015-06-03T09:11:09Z</time></trkpt><trkpt lat="51.7793911602" lon="-2.0982823055"><ele>235.66</ele><time>2015-06-03T09:11:17Z</time></trkpt><trkpt lat="51.7794728838" lon="-2.0984414779"><ele>232.78</ele><time>2015-06-03T09:11:31Z</time></trkpt><trkpt lat="51.7795604747" lon="-2.0985886641"><ele>231.33</ele><time>2015-06-03T09:11:46Z</time></trkpt><trkpt lat="51.7796469759" lon="-2.0986201800"><ele>230.85</ele><time>2015-06-03T09:11:57Z</time></trkpt><trkpt lat="51.7796727084" lon="-2.0985850599"><ele>230.85</ele><time>2015-06-03T09:12:11Z</time></trkpt><trkpt lat="51.7796757258" lon="-2.0985777676"><ele>230.37</ele><time>2015-06-03T09:12:21Z</time></trkpt><trkpt lat="51.7796984408" lon="-2.0985758398"><ele>230.85</ele><time>2015-06-03T09:12:23Z</time></trkpt><trkpt lat="51.7798456270" lon="-2.0986967068"><ele>231.33</ele><time>2015-06-03T09:12:38Z</time></trkpt><trkpt lat="51.7799251713" lon="-2.0987845492"><ele>232.78</ele><time>2015-06-03T09:12:51Z</time></trkpt><trkpt lat="51.7799544241" lon="-2.0988019835"><ele>233.74</ele><time>2015-06-03T09:12:54Z</time></trkpt><trkpt lat="51.7800966650" lon="-2.0989281312"><ele>235.66</ele><time>2015-06-03T09:13:11Z</time></trkpt><trkpt lat="51.7802699190" lon="-2.0990426280"><ele>236.14</ele><time>2015-06-03T09:13:27Z</time></trkpt><trkpt lat="51.7804028559" lon="-2.0991563704"><ele>236.14</ele><time>2015-06-03T09:13:41Z</time></trkpt><trkpt lat="51.7805426661" lon="-2.0992602222"><ele>236.14</ele><time>2015-06-03T09:13:54Z</time></trkpt><trkpt lat="51.7805907782" lon="-2.0993039757"><ele>234.22</ele><time>2015-06-03T09:13:59Z</time></trkpt><trkpt lat="51.7807222903" lon="-2.0994215738"><ele>235.66</ele><time>2015-06-03T09:14:13Z</time></trkpt><trkpt lat="51.7808097135" lon="-2.0995096676"><ele>235.66</ele><time>2015-06-03T09:14:25Z</time></trkpt><trkpt lat="51.7808118090" lon="-2.0995154511"><ele>234.70</ele><time>2015-06-03T09:14:26Z</time></trkpt><trkpt lat="51.7809791118" lon="-2.0996388327"><ele>234.22</ele><time>2015-06-03T09:14:42Z</time></trkpt><trkpt lat="51.7811498512" lon="-2.0997711830"><ele>232.78</ele><time>2015-06-03T09:14:59Z</time></trkpt><trkpt lat="51.7813159805" lon="-2.0998764597"><ele>231.81</ele><time>2015-06-03T09:15:15Z</time></trkpt><trkpt lat="51.7814398650" lon="-2.0999361388"><ele>231.81</ele><time>2015-06-03T09:15:31Z</time></trkpt><trkpt lat="51.7814385239" lon="-2.0999389887"><ele>231.81</ele><time>2015-06-03T09:15:49Z</time></trkpt><trkpt lat="51.7814682797" lon="-2.0999240689"><ele>232.30</ele><time>2015-06-03T09:16:03Z</time></trkpt><trkpt lat="51.7815115303" lon="-2.0998826623"><ele>232.30</ele><time>2015-06-03T09:16:07Z</time></trkpt><trkpt lat="51.7816649191" lon="-2.0997197181"><ele>232.30</ele><time>2015-06-03T09:16:23Z</time></trkpt><trkpt lat="51.7818214931" lon="-2.0996657386"><ele>232.78</ele><time>2015-06-03T09:16:38Z</time></trkpt><trkpt lat="51.7820255924" lon="-2.0996794850"><ele>231.81</ele><time>2015-06-03T09:16:55Z</time></trkpt><trkpt lat="51.7821861058" lon="-2.0997050498"><ele>230.37</ele><time>2015-06-03T09:17:09Z</time></trkpt><trkpt lat="51.7823203839" lon="-2.0997438580"><ele>229.89</ele><time>2015-06-03T09:17:23Z</time></trkpt><trkpt lat="51.7823439371" lon="-2.0997513179"><ele>229.41</ele><time>2015-06-03T09:17:25Z</time></trkpt><trkpt lat="51.7824933864" lon="-2.0998604503"><ele>228.45</ele><time>2015-06-03T09:17:42Z</time></trkpt><trkpt lat="51.7826347053" lon="-2.0999920461"><ele>226.53</ele><time>2015-06-03T09:17:56Z</time></trkpt><trkpt lat="51.7827281635" lon="-2.1001590975"><ele>225.57</ele><time>2015-06-03T09:18:09Z</time></trkpt><trkpt lat="51.7827686481" lon="-2.1002347022"><ele>225.09</ele><time>2015-06-03T09:18:15Z</time></trkpt><trkpt lat="51.7828041874" lon="-2.1003100555"><ele>224.61</ele><time>2015-06-03T09:18:21Z</time></trkpt><trkpt lat="51.7828129884" lon="-2.1003392246"><ele>224.61</ele><time>2015-06-03T09:18:23Z</time></trkpt><trkpt lat="51.7829103023" lon="-2.1005597524"><ele>222.20</ele><time>2015-06-03T09:18:40Z</time></trkpt><trkpt lat="51.7829188518" lon="-2.1005791984"><ele>222.20</ele><time>2015-06-03T09:18:41Z</time></trkpt><trkpt lat="51.7829644494" lon="-2.1007285640"><ele>221.72</ele><time>2015-06-03T09:18:53Z</time></trkpt><trkpt lat="51.7829701491" lon="-2.1007527877"><ele>221.24</ele><time>2015-06-03T09:18:55Z</time></trkpt><trkpt lat="51.7830278166" lon="-2.1008467488"><ele>220.76</ele><time>2015-06-03T09:19:12Z</time></trkpt><trkpt lat="51.7830156628" lon="-2.1008125506"><ele>221.24</ele><time>2015-06-03T09:19:15Z</time></trkpt><trkpt lat="51.7830166686" lon="-2.1007242054"><ele>220.76</ele><time>2015-06-03T09:19:19Z</time></trkpt><trkpt lat="51.7830626853" lon="-2.1005066950"><ele>218.36</ele><time>2015-06-03T09:19:32Z</time></trkpt><trkpt lat="51.7830579914" lon="-2.1005217824"><ele>217.88</ele><time>2015-06-03T09:19:54Z</time></trkpt><trkpt lat="51.7830633558" lon="-2.1005222853"><ele>217.40</ele><time>2015-06-03T09:20:15Z</time></trkpt><trkpt lat="51.7831222806" lon="-2.1005512029"><ele>216.43</ele><time>2015-06-03T09:20:35Z</time></trkpt><trkpt lat="51.7832657788" lon="-2.1005771868"><ele>217.88</ele><time>2015-06-03T09:20:58Z</time></trkpt><trkpt lat="51.7833447363" lon="-2.1003702376"><ele>218.36</ele><time>2015-06-03T09:21:16Z</time></trkpt><trkpt lat="51.7834059242" lon="-2.1002563275"><ele>221.24</ele><time>2015-06-03T09:21:36Z</time></trkpt><trkpt lat="51.7835402861" lon="-2.1001476981"><ele>224.61</ele><time>2015-06-03T09:21:54Z</time></trkpt><trkpt lat="51.7836180702" lon="-2.1001683176"><ele>226.53</ele><time>2015-06-03T09:22:03Z</time></trkpt><trkpt lat="51.7836847901" lon="-2.1001704130"><ele>227.49</ele><time>2015-06-03T09:22:09Z</time></trkpt><trkpt lat="51.7837436311" lon="-2.1001093928"><ele>228.45</ele><time>2015-06-03T09:22:26Z</time></trkpt><trkpt lat="51.7837703694" lon="-2.1000658907"><ele>229.41</ele><time>2015-06-03T09:22:45Z</time></trkpt><trkpt lat="51.7837668490" lon="-2.1000491269"><ele>228.93</ele><time>2015-06-03T09:23:02Z</time></trkpt><trkpt lat="51.7837578803" lon="-2.0999325346"><ele>228.93</ele><time>2015-06-03T09:23:16Z</time></trkpt><trkpt lat="51.7837598920" lon="-2.0998621266"><ele>228.93</ele><time>2015-06-03T09:23:19Z</time></trkpt><trkpt lat="51.7837523483" lon="-2.0997431036"><ele>228.93</ele><time>2015-06-03T09:23:25Z</time></trkpt><trkpt lat="51.7837437987" lon="-2.0995132718"><ele>228.93</ele><time>2015-06-03T09:23:39Z</time></trkpt><trkpt lat="51.7837405298" lon="-2.0992694423"><ele>228.93</ele><time>2015-06-03T09:23:53Z</time></trkpt><trkpt lat="51.7837142944" lon="-2.0990240201"><ele>228.45</ele><time>2015-06-03T09:24:06Z</time></trkpt><trkpt lat="51.7836759891" lon="-2.0987935178"><ele>227.49</ele><time>2015-06-03T09:24:20Z</time></trkpt><trkpt lat="51.7836712953" lon="-2.0986760035"><ele>227.97</ele><time>2015-06-03T09:24:35Z</time></trkpt><trkpt lat="51.7836748157" lon="-2.0985008217"><ele>227.49</ele><time>2015-06-03T09:24:45Z</time></trkpt><trkpt lat="51.7836626619" lon="-2.0982498676"><ele>227.49</ele><time>2015-06-03T09:25:02Z</time></trkpt><trkpt lat="51.7837474030" lon="-2.0981727540"><ele>227.97</ele><time>2015-06-03T09:25:18Z</time></trkpt><trkpt lat="51.7838187329" lon="-2.0981212892"><ele>227.49</ele><time>2015-06-03T09:25:30Z</time></trkpt><trkpt lat="51.7839479819" lon="-2.0981179364"><ele>228.45</ele><time>2015-06-03T09:25:45Z</time></trkpt><trkpt lat="51.7839726247" lon="-2.0981352031"><ele>228.45</ele><time>2015-06-03T09:26:14Z</time></trkpt><trkpt lat="51.7840434518" lon="-2.0981034357"><ele>227.97</ele><time>2015-06-03T09:26:26Z</time></trkpt><trkpt lat="51.7841131892" lon="-2.0980972331"><ele>227.97</ele><time>2015-06-03T09:26:45Z</time></trkpt><trkpt lat="51.7841359880" lon="-2.0980971493"><ele>228.45</ele><time>2015-06-03T09:26:51Z</time></trkpt><trkpt lat="51.7842512392" lon="-2.0981071237"><ele>228.93</ele><time>2015-06-03T09:27:07Z</time></trkpt><trkpt lat="51.7843447812" lon="-2.0981780346"><ele>228.93</ele><time>2015-06-03T09:27:25Z</time></trkpt><trkpt lat="51.7844674923" lon="-2.0981371310"><ele>229.41</ele><time>2015-06-03T09:27:42Z</time></trkpt><trkpt lat="51.7846080568" lon="-2.0981288329"><ele>228.93</ele><time>2015-06-03T09:27:59Z</time></trkpt><trkpt lat="51.7847553268" lon="-2.0981215406"><ele>229.41</ele><time>2015-06-03T09:28:15Z</time></trkpt><trkpt lat="51.7848562449" lon="-2.0981386397"><ele>229.41</ele><time>2015-06-03T09:28:24Z</time></trkpt><trkpt lat="51.7850112263" lon="-2.0981483627"><ele>229.41</ele><time>2015-06-03T09:28:40Z</time></trkpt><trkpt lat="51.7852102965" lon="-2.0981672220"><ele>229.41</ele><time>2015-06-03T09:28:58Z</time></trkpt><trkpt lat="51.7853516154" lon="-2.0981950499"><ele>229.41</ele><time>2015-06-03T09:29:12Z</time></trkpt><trkpt lat="51.7854872346" lon="-2.0981925353"><ele>229.89</ele><time>2015-06-03T09:29:31Z</time></trkpt><trkpt lat="51.7855603248" lon="-2.0982009172"><ele>229.89</ele><time>2015-06-03T09:29:39Z</time></trkpt><trkpt lat="51.7856727261" lon="-2.0982060302"><ele>229.89</ele><time>2015-06-03T09:29:54Z</time></trkpt><trkpt lat="51.7858912423" lon="-2.0982593391"><ele>230.37</ele><time>2015-06-03T09:30:14Z</time></trkpt><trkpt lat="51.7860654183" lon="-2.0982907712"><ele>230.85</ele><time>2015-06-03T09:30:30Z</time></trkpt><trkpt lat="51.7860711180" lon="-2.0982647873"><ele>230.37</ele><time>2015-06-03T09:30:40Z</time></trkpt><trkpt lat="51.7862125207" lon="-2.0982992370"><ele>230.37</ele><time>2015-06-03T09:30:54Z</time></trkpt><trkpt lat="51.7863995209" lon="-2.0983334351"><ele>230.85</ele><time>2015-06-03T09:31:11Z</time></trkpt><trkpt lat="51.7864244990" lon="-2.0983428229"><ele>230.37</ele><time>2015-06-03T09:31:13Z</time></trkpt><trkpt lat="51.7864781432" lon="-2.0983573236"><ele>230.37</ele><time>2015-06-03T09:31:27Z</time></trkpt><trkpt lat="51.7866066378" lon="-2.0983958803"><ele>230.85</ele><time>2015-06-03T09:31:40Z</time></trkpt><trkpt lat="51.7867852561" lon="-2.0984950382"><ele>230.85</ele><time>2015-06-03T09:31:57Z</time></trkpt><trkpt lat="51.7869274132" lon="-2.0985614229"><ele>230.37</ele><time>2015-06-03T09:32:12Z</time></trkpt><trkpt lat="51.7870887648" lon="-2.0986734051"><ele>230.37</ele><time>2015-06-03T09:32:29Z</time></trkpt><trkpt lat="51.7870977335" lon="-2.0987284742"><ele>230.37</ele><time>2015-06-03T09:32:33Z</time></trkpt><trkpt lat="51.7870865017" lon="-2.0988001395"><ele>230.37</ele><time>2015-06-03T09:32:36Z</time></trkpt><trkpt lat="51.7870682292" lon="-2.0988319069"><ele>229.89</ele><time>2015-06-03T09:32:38Z</time></trkpt><trkpt lat="51.7870667204" lon="-2.0988591481"><ele>230.37</ele><time>2015-06-03T09:32:54Z</time></trkpt><trkpt lat="51.7870745156" lon="-2.0988190826"><ele>228.93</ele><time>2015-06-03T09:33:20Z</time></trkpt><trkpt lat="51.7870717496" lon="-2.0988068450"><ele>229.89</ele><time>2015-06-03T09:33:41Z</time></trkpt><trkpt lat="51.7870920338" lon="-2.0988496765"><ele>229.89</ele><time>2015-06-03T09:33:45Z</time></trkpt><trkpt lat="51.7870782875" lon="-2.0992301311"><ele>231.33</ele><time>2015-06-03T09:34:04Z</time></trkpt><trkpt lat="51.7870882619" lon="-2.0992852841"><ele>231.81</ele><time>2015-06-03T09:34:07Z</time></trkpt><trkpt lat="51.7871746793" lon="-2.0995325502"><ele>231.33</ele><time>2015-06-03T09:34:22Z</time></trkpt><trkpt lat="51.7872904334" lon="-2.0996861905"><ele>231.81</ele><time>2015-06-03T09:34:35Z</time></trkpt><trkpt lat="51.7874670401" lon="-2.0999110769"><ele>233.26</ele><time>2015-06-03T09:34:51Z</time></trkpt><trkpt lat="51.7875919305" lon="-2.1001176909"><ele>233.26</ele><time>2015-06-03T09:35:05Z</time></trkpt><trkpt lat="51.7876751628" lon="-2.1003628615"><ele>233.26</ele><time>2015-06-03T09:35:19Z</time></trkpt><trkpt lat="51.7877481692" lon="-2.1006636880"><ele>233.74</ele><time>2015-06-03T09:35:34Z</time></trkpt><trkpt lat="51.7877966166" lon="-2.1009991318"><ele>234.22</ele><time>2015-06-03T09:35:51Z</time></trkpt><trkpt lat="51.7878179066" lon="-2.1012953483"><ele>234.70</ele><time>2015-06-03T09:36:06Z</time></trkpt><trkpt lat="51.7878189124" lon="-2.1013152972"><ele>234.70</ele><time>2015-06-03T09:36:07Z</time></trkpt><trkpt lat="51.7878281325" lon="-2.1013472322"><ele>235.18</ele><time>2015-06-03T09:36:09Z</time></trkpt><trkpt lat="51.7878487520" lon="-2.1016573627"><ele>235.18</ele><time>2015-06-03T09:36:26Z</time></trkpt><trkpt lat="51.7878534459" lon="-2.1018075664"><ele>234.22</ele><time>2015-06-03T09:36:35Z</time></trkpt><trkpt lat="51.7878542840" lon="-2.1020824928"><ele>234.22</ele><time>2015-06-03T09:36:49Z</time></trkpt><trkpt lat="51.7878493387" lon="-2.1023441758"><ele>234.22</ele><time>2015-06-03T09:37:03Z</time></trkpt><trkpt lat="51.7878404539" lon="-2.1026601736"><ele>234.22</ele><time>2015-06-03T09:37:20Z</time></trkpt><trkpt lat="51.7878210079" lon="-2.1029131394"><ele>233.74</ele><time>2015-06-03T09:37:37Z</time></trkpt><trkpt lat="51.7878056690" lon="-2.1031501796"><ele>233.26</ele><time>2015-06-03T09:37:53Z</time></trkpt><trkpt lat="51.7877925094" lon="-2.1034070011"><ele>232.30</ele><time>2015-06-03T09:38:09Z</time></trkpt><trkpt lat="51.7877930123" lon="-2.1034419537"><ele>232.78</ele><time>2015-06-03T09:38:17Z</time></trkpt><trkpt lat="51.7877967004" lon="-2.1035075001"><ele>232.78</ele><time>2015-06-03T09:38:35Z</time></trkpt><trkpt lat="51.7877880670" lon="-2.1035837755"><ele>232.78</ele><time>2015-06-03T09:38:51Z</time></trkpt><trkpt lat="51.7877912521" lon="-2.1037300397"><ele>232.78</ele><time>2015-06-03T09:39:05Z</time></trkpt><trkpt lat="51.7877918389" lon="-2.1037864499"><ele>232.78</ele><time>2015-06-03T09:39:09Z</time></trkpt><trkpt lat="51.7877987958" lon="-2.1038684249"><ele>233.26</ele><time>2015-06-03T09:39:22Z</time></trkpt><trkpt lat="51.7878005560" lon="-2.1038914751"><ele>233.74</ele><time>2015-06-03T09:39:24Z</time></trkpt><trkpt lat="51.7877946887" lon="-2.1039915551"><ele>233.74</ele><time>2015-06-03T09:39:29Z</time></trkpt><trkpt lat="51.7877917551" lon="-2.1042478736"><ele>234.70</ele><time>2015-06-03T09:39:44Z</time></trkpt><trkpt lat="51.7877842113" lon="-2.1043681540"><ele>234.70</ele><time>2015-06-03T09:39:52Z</time></trkpt><trkpt lat="51.7877713032" lon="-2.1044916194"><ele>235.18</ele><time>2015-06-03T09:39:59Z</time></trkpt><trkpt lat="51.7877337523" lon="-2.1047569066"><ele>236.14</ele><time>2015-06-03T09:40:16Z</time></trkpt><trkpt lat="51.7877302319" lon="-2.1048132330"><ele>235.66</ele><time>2015-06-03T09:40:20Z</time></trkpt><trkpt lat="51.7877284717" lon="-2.1049146540"><ele>235.66</ele><time>2015-06-03T09:40:38Z</time></trkpt><trkpt lat="51.7877234425" lon="-2.1049386263"><ele>235.66</ele><time>2015-06-03T09:40:40Z</time></trkpt><trkpt lat="51.7877182458" lon="-2.1049718186"><ele>235.66</ele><time>2015-06-03T09:40:42Z</time></trkpt><trkpt lat="51.7877002247" lon="-2.1051029954"><ele>234.70</ele><time>2015-06-03T09:40:50Z</time></trkpt><trkpt lat="51.7876728997" lon="-2.1053550392"><ele>234.22</ele><time>2015-06-03T09:41:05Z</time></trkpt><trkpt lat="51.7876679543" lon="-2.1054161433"><ele>234.70</ele><time>2015-06-03T09:41:10Z</time></trkpt><trkpt lat="51.7876702175" lon="-2.1054930892"><ele>234.22</ele><time>2015-06-03T09:41:14Z</time></trkpt><trkpt lat="51.7876872327" lon="-2.1057302132"><ele>234.70</ele><time>2015-06-03T09:41:29Z</time></trkpt><trkpt lat="51.7876946088" lon="-2.1058437880"><ele>235.18</ele><time>2015-06-03T09:41:42Z</time></trkpt><trkpt lat="51.7877101991" lon="-2.1061329637"><ele>236.14</ele><time>2015-06-03T09:41:57Z</time></trkpt><trkpt lat="51.7877622508" lon="-2.1063881088"><ele>235.66</ele><time>2015-06-03T09:42:12Z</time></trkpt><trkpt lat="51.7877884023" lon="-2.1065246500"><ele>236.14</ele><time>2015-06-03T09:42:21Z</time></trkpt><trkpt lat="51.7878060043" lon="-2.1066254005"><ele>236.14</ele><time>2015-06-03T09:42:28Z</time></trkpt><trkpt lat="51.7878889851" lon="-2.1068985667"><ele>236.62</ele><time>2015-06-03T09:42:45Z</time></trkpt><trkpt lat="51.7878927570" lon="-2.1069345251"><ele>236.62</ele><time>2015-06-03T09:42:47Z</time></trkpt><trkpt lat="51.7879218422" lon="-2.1071894187"><ele>236.62</ele><time>2015-06-03T09:43:02Z</time></trkpt><trkpt lat="51.7879277095" lon="-2.1073661931"><ele>236.62</ele><time>2015-06-03T09:43:17Z</time></trkpt><trkpt lat="51.7879785039" lon="-2.1075655986"><ele>236.14</ele><time>2015-06-03T09:43:31Z</time></trkpt><trkpt lat="51.7880992033" lon="-2.1077290457"><ele>236.62</ele><time>2015-06-03T09:43:50Z</time></trkpt><trkpt lat="51.7881065793" lon="-2.1077394392"><ele>236.14</ele><time>2015-06-03T09:44:13Z</time></trkpt><trkpt lat="51.7880604789" lon="-2.1079408564"><ele>238.06</ele><time>2015-06-03T09:44:26Z</time></trkpt><trkpt lat="51.7880133726" lon="-2.1081282757"><ele>238.06</ele><time>2015-06-03T09:44:42Z</time></trkpt><trkpt lat="51.7879566271" lon="-2.1083838399"><ele>239.02</ele><time>2015-06-03T09:44:59Z</time></trkpt><trkpt lat="51.7879522685" lon="-2.1084006876"><ele>239.02</ele><time>2015-06-03T09:45:00Z</time></trkpt><trkpt lat="51.7878878117" lon="-2.1086576767"><ele>239.51</ele><time>2015-06-03T09:45:16Z</time></trkpt><trkpt lat="51.7878679466" lon="-2.1087223850"><ele>240.47</ele><time>2015-06-03T09:45:20Z</time></trkpt><trkpt lat="51.7877964489" lon="-2.1089362074"><ele>239.51</ele><time>2015-06-03T09:45:33Z</time></trkpt><trkpt lat="51.7877868097" lon="-2.1090411488"><ele>239.51</ele><time>2015-06-03T09:45:38Z</time></trkpt><trkpt lat="51.7877572216" lon="-2.1091466770"><ele>240.47</ele><time>2015-06-03T09:45:45Z</time></trkpt><trkpt lat="51.7876741569" lon="-2.1094365232"><ele>241.43</ele><time>2015-06-03T09:46:02Z</time></trkpt><trkpt lat="51.7876003124" lon="-2.1097101923"><ele>241.43</ele><time>2015-06-03T09:46:20Z</time></trkpt><trkpt lat="51.7875345144" lon="-2.1098987851"><ele>241.43</ele><time>2015-06-03T09:46:34Z</time></trkpt><trkpt lat="51.7874494381" lon="-2.1101551037"><ele>241.43</ele><time>2015-06-03T09:46:49Z</time></trkpt><trkpt lat="51.7873626016" lon="-2.1104066446"><ele>241.91</ele><time>2015-06-03T09:47:06Z</time></trkpt><trkpt lat="51.7872736696" lon="-2.1106546652"><ele>241.91</ele><time>2015-06-03T09:47:21Z</time></trkpt><trkpt lat="51.7871934548" lon="-2.1108818986"><ele>240.95</ele><time>2015-06-03T09:47:36Z</time></trkpt><trkpt lat="51.7871047743" lon="-2.1111326013"><ele>241.43</ele><time>2015-06-03T09:47:53Z</time></trkpt><trkpt lat="51.7870053649" lon="-2.1114141494"><ele>240.47</ele><time>2015-06-03T09:48:10Z</time></trkpt><trkpt lat="51.7869089730" lon="-2.1116943564"><ele>239.99</ele><time>2015-06-03T09:48:29Z</time></trkpt><trkpt lat="51.7868424207" lon="-2.1118297242"><ele>240.47</ele><time>2015-06-03T09:48:38Z</time></trkpt><trkpt lat="51.7867731024" lon="-2.1120898984"><ele>239.51</ele><time>2015-06-03T09:48:56Z</time></trkpt><trkpt lat="51.7867670674" lon="-2.1121368371"><ele>240.95</ele><time>2015-06-03T09:49:18Z</time></trkpt><trkpt lat="51.7867216375" lon="-2.1123291180"><ele>240.47</ele><time>2015-06-03T09:49:33Z</time></trkpt><trkpt lat="51.7866584379" lon="-2.1125616319"><ele>240.47</ele><time>2015-06-03T09:49:50Z</time></trkpt><trkpt lat="51.7866000161" lon="-2.1128166933"><ele>239.99</ele><time>2015-06-03T09:50:11Z</time></trkpt><trkpt lat="51.7865693383" lon="-2.1129374765"><ele>239.51</ele><time>2015-06-03T09:50:26Z</time></trkpt><trkpt lat="51.7865369003" lon="-2.1130908653"><ele>238.54</ele><time>2015-06-03T09:50:43Z</time></trkpt><trkpt lat="51.7865068093" lon="-2.1132228803"><ele>238.54</ele><time>2015-06-03T09:50:58Z</time></trkpt><trkpt lat="51.7864788137" lon="-2.1133509558"><ele>237.58</ele><time>2015-06-03T09:51:14Z</time></trkpt><trkpt lat="51.7864726949" lon="-2.1133673005"><ele>237.58</ele><time>2015-06-03T09:51:35Z</time></trkpt><trkpt lat="51.7864485551" lon="-2.1134957951"><ele>237.10</ele><time>2015-06-03T09:51:50Z</time></trkpt><trkpt lat="51.7864291091" lon="-2.1136112977"><ele>236.14</ele><time>2015-06-03T09:52:04Z</time></trkpt><trkpt lat="51.7864029575" lon="-2.1137682069"><ele>235.18</ele><time>2015-06-03T09:52:21Z</time></trkpt><trkpt lat="51.7863822542" lon="-2.1139509324"><ele>234.22</ele><time>2015-06-03T09:52:37Z</time></trkpt><trkpt lat="51.7863561027" lon="-2.1141106915"><ele>233.26</ele><time>2015-06-03T09:52:53Z</time></trkpt><trkpt lat="51.7863369919" lon="-2.1143002063"><ele>231.81</ele><time>2015-06-03T09:53:10Z</time></trkpt><trkpt lat="51.7863166239" lon="-2.1144836862"><ele>229.89</ele><time>2015-06-03T09:53:27Z</time></trkpt><trkpt lat="51.7863063142" lon="-2.1145147830"><ele>229.89</ele><time>2015-06-03T09:53:48Z</time></trkpt><trkpt lat="51.7862784024" lon="-2.1147250850"><ele>227.49</ele><time>2015-06-03T09:54:05Z</time></trkpt><trkpt lat="51.7862474732" lon="-2.1149922162"><ele>225.57</ele><time>2015-06-03T09:54:22Z</time></trkpt><trkpt lat="51.7862247583" lon="-2.1151783783"><ele>223.64</ele><time>2015-06-03T09:54:41Z</time></trkpt><trkpt lat="51.7861961760" lon="-2.1153214574"><ele>222.68</ele><time>2015-06-03T09:54:57Z</time></trkpt><trkpt lat="51.7862011213" lon="-2.1154906042"><ele>220.76</ele><time>2015-06-03T09:55:16Z</time></trkpt><trkpt lat="51.7861582898" lon="-2.1155889239"><ele>219.32</ele><time>2015-06-03T09:55:35Z</time></trkpt><trkpt lat="51.7860920727" lon="-2.1157237049"><ele>216.91</ele><time>2015-06-03T09:55:51Z</time></trkpt><trkpt lat="51.7860376742" lon="-2.1158268023"><ele>214.51</ele><time>2015-06-03T09:56:08Z</time></trkpt><trkpt lat="51.7860286217" lon="-2.1158683766"><ele>214.51</ele><time>2015-06-03T09:56:27Z</time></trkpt><trkpt lat="51.7860266939" lon="-2.1158669516"><ele>214.03</ele><time>2015-06-03T09:56:49Z</time></trkpt><trkpt lat="51.7859360855" lon="-2.1158859786"><ele>212.59</ele><time>2015-06-03T09:57:05Z</time></trkpt><trkpt lat="51.7856981233" lon="-2.1160131320"><ele>212.11</ele><time>2015-06-03T09:57:23Z</time></trkpt><trkpt lat="51.7856366839" lon="-2.1161264554"><ele>212.59</ele><time>2015-06-03T09:57:39Z</time></trkpt><trkpt lat="51.7856122088" lon="-2.1161533613"><ele>212.11</ele><time>2015-06-03T09:57:58Z</time></trkpt><trkpt lat="51.7854850553" lon="-2.1162363421"><ele>212.11</ele><time>2015-06-03T09:58:14Z</time></trkpt><trkpt lat="51.7854390386" lon="-2.1162400302"><ele>212.11</ele><time>2015-06-03T09:58:28Z</time></trkpt><trkpt lat="51.7854278907" lon="-2.1162484121"><ele>212.11</ele><time>2015-06-03T09:58:30Z</time></trkpt><trkpt lat="51.7852962948" lon="-2.1163136233"><ele>211.15</ele><time>2015-06-03T09:58:46Z</time></trkpt><trkpt lat="51.7852154095" lon="-2.1163579635"><ele>211.15</ele><time>2015-06-03T09:59:02Z</time></trkpt><trkpt lat="51.7850807961" lon="-2.1164317243"><ele>210.19</ele><time>2015-06-03T09:59:17Z</time></trkpt><trkpt lat="51.7849484459" lon="-2.1164200734"><ele>210.19</ele><time>2015-06-03T09:59:33Z</time></trkpt><trkpt lat="51.7849427462" lon="-2.1164257731"><ele>210.19</ele><time>2015-06-03T09:59:35Z</time></trkpt><trkpt lat="51.7848174367" lon="-2.1164883021"><ele>210.67</ele><time>2015-06-03T09:59:53Z</time></trkpt><trkpt lat="51.7847665586" lon="-2.1164846141"><ele>210.67</ele><time>2015-06-03T10:00:00Z</time></trkpt><trkpt lat="51.7846347112" lon="-2.1164979413"><ele>210.67</ele><time>2015-06-03T10:00:16Z</time></trkpt><trkpt lat="51.7845803127" lon="-2.1165424492"><ele>211.15</ele><time>2015-06-03T10:00:31Z</time></trkpt><trkpt lat="51.7844737787" lon="-2.1165712830"><ele>210.67</ele><time>2015-06-03T10:00:54Z</time></trkpt><trkpt lat="51.7843218148" lon="-2.1165044792"><ele>209.22</ele><time>2015-06-03T10:01:13Z</time></trkpt><trkpt lat="51.7842585314" lon="-2.1164108533"><ele>208.74</ele><time>2015-06-03T10:01:23Z</time></trkpt><trkpt lat="51.7840966769" lon="-2.1163250227"><ele>207.78</ele><time>2015-06-03T10:01:39Z</time></trkpt><trkpt lat="51.7840564437" lon="-2.1163598914"><ele>208.26</ele><time>2015-06-03T10:01:56Z</time></trkpt><trkpt lat="51.7840327229" lon="-2.1163660940"><ele>207.78</ele><time>2015-06-03T10:01:58Z</time></trkpt><trkpt lat="51.7839801684" lon="-2.1164189838"><ele>208.26</ele><time>2015-06-03T10:02:03Z</time></trkpt><trkpt lat="51.7838714551" lon="-2.1165679302"><ele>208.26</ele><time>2015-06-03T10:02:19Z</time></trkpt><trkpt lat="51.7837800086" lon="-2.1166366618"><ele>207.78</ele><time>2015-06-03T10:02:27Z</time></trkpt><trkpt lat="51.7837409489" lon="-2.1166710276"><ele>208.74</ele><time>2015-06-03T10:02:31Z</time></trkpt><trkpt lat="51.7836628295" lon="-2.1167165413"><ele>208.74</ele><time>2015-06-03T10:02:47Z</time></trkpt><trkpt lat="51.7836261168" lon="-2.1167671680"><ele>208.74</ele><time>2015-06-03T10:03:00Z</time></trkpt><trkpt lat="51.7835431360" lon="-2.1170231514"><ele>209.22</ele><time>2015-06-03T10:03:16Z</time></trkpt><trkpt lat="51.7835112847" lon="-2.1171049587"><ele>209.70</ele><time>2015-06-03T10:03:26Z</time></trkpt><trkpt lat="51.7834811099" lon="-2.1173403226"><ele>209.22</ele><time>2015-06-03T10:03:40Z</time></trkpt><trkpt lat="51.7834396195" lon="-2.1175533067"><ele>209.22</ele><time>2015-06-03T10:03:58Z</time></trkpt><trkpt lat="51.7834431399" lon="-2.1175688971"><ele>209.70</ele><time>2015-06-03T10:04:15Z</time></trkpt><trkpt lat="51.7834585626" lon="-2.1175689809"><ele>206.34</ele><time>2015-06-03T10:04:48Z</time></trkpt><trkpt lat="51.7834583111" lon="-2.1175680589"><ele>209.70</ele><time>2015-06-03T10:04:49Z</time></trkpt><trkpt lat="51.7834504321" lon="-2.1175498702"><ele>209.70</ele><time>2015-06-03T10:05:29Z</time></trkpt><trkpt lat="51.7834630050" lon="-2.1175268199"><ele>209.22</ele><time>2015-06-03T10:05:57Z</time></trkpt><trkpt lat="51.7834624182" lon="-2.1175261494"><ele>220.76</ele><time>2015-06-03T10:06:01Z</time></trkpt><trkpt lat="51.7834602389" lon="-2.1175321005"><ele>210.19</ele><time>2015-06-03T10:06:02Z</time></trkpt><trkpt lat="51.7834480014" lon="-2.1175520495"><ele>209.70</ele><time>2015-06-03T10:06:03Z</time></trkpt><trkpt lat="51.7834296450" lon="-2.1176993195"><ele>209.22</ele><time>2015-06-03T10:06:17Z</time></trkpt><trkpt lat="51.7834141385" lon="-2.1178183425"><ele>209.70</ele><time>2015-06-03T10:06:22Z</time></trkpt><trkpt lat="51.7834157310" lon="-2.1181847993"><ele>210.19</ele><time>2015-06-03T10:06:40Z</time></trkpt><trkpt lat="51.7834096123" lon="-2.1182334144"><ele>210.19</ele><time>2015-06-03T10:06:42Z</time></trkpt><trkpt lat="51.7834050860" lon="-2.1184772439"><ele>211.63</ele><time>2015-06-03T10:06:55Z</time></trkpt><trkpt lat="51.7834074330" lon="-2.1185145434"><ele>211.63</ele><time>2015-06-03T10:06:57Z</time></trkpt><trkpt lat="51.7834066786" lon="-2.1186473966"><ele>212.11</ele><time>2015-06-03T10:07:06Z</time></trkpt><trkpt lat="51.7834153119" lon="-2.1188136097"><ele>213.07</ele><time>2015-06-03T10:07:20Z</time></trkpt><trkpt lat="51.7834066786" lon="-2.1188350674"><ele>213.07</ele><time>2015-06-03T10:07:38Z</time></trkpt><trkpt lat="51.7833573092" lon="-2.1188397612"><ele>213.07</ele><time>2015-06-03T10:07:53Z</time></trkpt><trkpt lat="51.7832148168" lon="-2.1188619733"><ele>215.95</ele><time>2015-06-03T10:08:09Z</time></trkpt><trkpt lat="51.7831451632" lon="-2.1188756358"><ele>217.88</ele><time>2015-06-03T10:08:28Z</time></trkpt><trkpt lat="51.7830393836" lon="-2.1188922320"><ele>219.80</ele><time>2015-06-03T10:08:48Z</time></trkpt><trkpt lat="51.7829530500" lon="-2.1188839339"><ele>222.20</ele><time>2015-06-03T10:09:05Z</time></trkpt><trkpt lat="51.7829491943" lon="-2.1188877895"><ele>221.72</ele><time>2015-06-03T10:09:10Z</time></trkpt><trkpt lat="51.7827973980" lon="-2.1189604606"><ele>225.09</ele><time>2015-06-03T10:09:28Z</time></trkpt><trkpt lat="51.7827437539" lon="-2.1189663280"><ele>226.53</ele><time>2015-06-03T10:09:34Z</time></trkpt><trkpt lat="51.7825933825" lon="-2.1189832594"><ele>228.45</ele><time>2015-06-03T10:09:50Z</time></trkpt><trkpt lat="51.7824750300" lon="-2.1189804096"><ele>230.85</ele><time>2015-06-03T10:10:06Z</time></trkpt><trkpt lat="51.7823099904" lon="-2.1190024540"><ele>232.78</ele><time>2015-06-03T10:10:23Z</time></trkpt><trkpt lat="51.7822970822" lon="-2.1190154459"><ele>232.30</ele><time>2015-06-03T10:10:39Z</time></trkpt><trkpt lat="51.7822651472" lon="-2.1190115064"><ele>232.78</ele><time>2015-06-03T10:10:53Z</time></trkpt><trkpt lat="51.7822738644" lon="-2.1190057229"><ele>232.30</ele><time>2015-06-03T10:11:17Z</time></trkpt><trkpt lat="51.7822735291" lon="-2.1190020349"><ele>232.78</ele><time>2015-06-03T10:11:40Z</time></trkpt><trkpt lat="51.7822721880" lon="-2.1190039627"><ele>232.78</ele><time>2015-06-03T10:12:03Z</time></trkpt><trkpt lat="51.7822244111" lon="-2.1190150268"><ele>233.74</ele><time>2015-06-03T10:12:30Z</time></trkpt><trkpt lat="51.7820913065" lon="-2.1189982630"><ele>234.22</ele><time>2015-06-03T10:12:46Z</time></trkpt><trkpt lat="51.7820877023" lon="-2.1189847682"><ele>234.22</ele><time>2015-06-03T10:12:47Z</time></trkpt><trkpt lat="51.7819324695" lon="-2.1188970096"><ele>234.22</ele><time>2015-06-03T10:13:03Z</time></trkpt><trkpt lat="51.7818105966" lon="-2.1187884640"><ele>234.70</ele><time>2015-06-03T10:13:17Z</time></trkpt><trkpt lat="51.7817508336" lon="-2.1187174693"><ele>234.22</ele><time>2015-06-03T10:13:31Z</time></trkpt><trkpt lat="51.7817129474" lon="-2.1187375858"><ele>234.22</ele><time>2015-06-03T10:13:44Z</time></trkpt><trkpt lat="51.7816450540" lon="-2.1187885478"><ele>234.70</ele><time>2015-06-03T10:13:59Z</time></trkpt><trkpt lat="51.7815188225" lon="-2.1189264301"><ele>235.18</ele><time>2015-06-03T10:14:16Z</time></trkpt><trkpt lat="51.7813897412" lon="-2.1190146077"><ele>235.18</ele><time>2015-06-03T10:14:33Z</time></trkpt><trkpt lat="51.7812798545" lon="-2.1190931462"><ele>235.66</ele><time>2015-06-03T10:14:47Z</time></trkpt><trkpt lat="51.7811861448" lon="-2.1191414259"><ele>235.18</ele><time>2015-06-03T10:15:05Z</time></trkpt><trkpt lat="51.7811492644" lon="-2.1191485506"><ele>235.18</ele><time>2015-06-03T10:15:11Z</time></trkpt><trkpt lat="51.7811083607" lon="-2.1191347204"><ele>235.18</ele><time>2015-06-03T10:15:15Z</time></trkpt><trkpt lat="51.7809540499" lon="-2.1190677490"><ele>234.22</ele><time>2015-06-03T10:15:31Z</time></trkpt><trkpt lat="51.7809160799" lon="-2.1190308686"><ele>233.26</ele><time>2015-06-03T10:15:41Z</time></trkpt><trkpt lat="51.7808716558" lon="-2.1189564373"><ele>233.26</ele><time>2015-06-03T10:15:58Z</time></trkpt><trkpt lat="51.7808244657" lon="-2.1187734604"><ele>231.81</ele><time>2015-06-03T10:16:12Z</time></trkpt><trkpt lat="51.7807815503" lon="-2.1186643280"><ele>231.33</ele><time>2015-06-03T10:16:29Z</time></trkpt><trkpt lat="51.7807794549" lon="-2.1186475642"><ele>230.85</ele><time>2015-06-03T10:16:55Z</time></trkpt><trkpt lat="51.7807807960" lon="-2.1186515875"><ele>231.81</ele><time>2015-06-03T10:17:19Z</time></trkpt><trkpt lat="51.7807788681" lon="-2.1186749730"><ele>231.33</ele><time>2015-06-03T10:17:44Z</time></trkpt><trkpt lat="51.7807594221" lon="-2.1186806727"><ele>230.37</ele><time>2015-06-03T10:18:07Z</time></trkpt><trkpt lat="51.7807284091" lon="-2.1186920721"><ele>230.37</ele><time>2015-06-03T10:18:19Z</time></trkpt><trkpt lat="51.7807187699" lon="-2.1186919045"><ele>230.37</ele><time>2015-06-03T10:18:42Z</time></trkpt><trkpt lat="51.7807183508" lon="-2.1186998673"><ele>230.37</ele><time>2015-06-03T10:19:08Z</time></trkpt><trkpt lat="51.7807308398" lon="-2.1186827682"><ele>231.33</ele><time>2015-06-03T10:19:29Z</time></trkpt><trkpt lat="51.7807299178" lon="-2.1186747216"><ele>231.33</ele><time>2015-06-03T10:19:46Z</time></trkpt><trkpt lat="51.7807259783" lon="-2.1186692733"><ele>231.33</ele><time>2015-06-03T10:20:14Z</time></trkpt><trkpt lat="51.7807263974" lon="-2.1186660044"><ele>231.33</ele><time>2015-06-03T10:20:42Z</time></trkpt><trkpt lat="51.7807277385" lon="-2.1186624002"><ele>231.33</ele><time>2015-06-03T10:21:09Z</time></trkpt><trkpt lat="51.7807196081" lon="-2.1186795831"><ele>231.33</ele><time>2015-06-03T10:21:26Z</time></trkpt><trkpt lat="51.7807158362" lon="-2.1186850313"><ele>230.85</ele><time>2015-06-03T10:21:46Z</time></trkpt><trkpt lat="51.7807119805" lon="-2.1186820976"><ele>231.81</ele><time>2015-06-03T10:22:03Z</time></trkpt><trkpt lat="51.7807014193" lon="-2.1186945867"><ele>230.85</ele><time>2015-06-03T10:22:22Z</time></trkpt><trkpt lat="51.7807222065" lon="-2.1186861210"><ele>231.81</ele><time>2015-06-03T10:22:42Z</time></trkpt><trkpt lat="51.7807261460" lon="-2.1186900605"><ele>231.33</ele><time>2015-06-03T10:23:05Z</time></trkpt><trkpt lat="51.7807316780" lon="-2.1186832711"><ele>231.33</ele><time>2015-06-03T10:23:35Z</time></trkpt><trkpt lat="51.7807382997" lon="-2.1186846960"><ele>231.81</ele><time>2015-06-03T10:24:06Z</time></trkpt><trkpt lat="51.7807471845" lon="-2.1186779067"><ele>231.81</ele><time>2015-06-03T10:24:40Z</time></trkpt><trkpt lat="51.7807514593" lon="-2.1186772361"><ele>231.33</ele><time>2015-06-03T10:25:09Z</time></trkpt><trkpt lat="51.7807389703" lon="-2.1186858695"><ele>230.85</ele><time>2015-06-03T10:25:39Z</time></trkpt><trkpt lat="51.7807298340" lon="-2.1186759789"><ele>231.33</ele><time>2015-06-03T10:25:58Z</time></trkpt><trkpt lat="51.7806715798" lon="-2.1185527649"><ele>230.37</ele><time>2015-06-03T10:26:14Z</time></trkpt><trkpt lat="51.7806129903" lon="-2.1184672695"><ele>229.41</ele><time>2015-06-03T10:26:26Z</time></trkpt><trkpt lat="51.7804861721" lon="-2.1182577219"><ele>226.53</ele><time>2015-06-03T10:26:46Z</time></trkpt><trkpt lat="51.7803912051" lon="-2.1180711407"><ele>225.57</ele><time>2015-06-03T10:27:03Z</time></trkpt><trkpt lat="51.7802985013" lon="-2.1178372856"><ele>223.64</ele><time>2015-06-03T10:27:20Z</time></trkpt><trkpt lat="51.7802055459" lon="-2.1175893489"><ele>221.24</ele><time>2015-06-03T10:27:36Z</time></trkpt><trkpt lat="51.7801225651" lon="-2.1173994988"><ele>219.32</ele><time>2015-06-03T10:27:54Z</time></trkpt><trkpt lat="51.7800341360" lon="-2.1171649732"><ele>217.40</ele><time>2015-06-03T10:28:13Z</time></trkpt><trkpt lat="51.7799743731" lon="-2.1170071419"><ele>215.95</ele><time>2015-06-03T10:28:30Z</time></trkpt><trkpt lat="51.7798558529" lon="-2.1166504920"><ele>213.55</ele><time>2015-06-03T10:28:49Z</time></trkpt><trkpt lat="51.7798439506" lon="-2.1166202333"><ele>213.07</ele><time>2015-06-03T10:29:04Z</time></trkpt><trkpt lat="51.7798009515" lon="-2.1164540201"><ele>211.15</ele><time>2015-06-03T10:29:18Z</time></trkpt><trkpt lat="51.7797430325" lon="-2.1162674390"><ele>208.74</ele><time>2015-06-03T10:29:35Z</time></trkpt><trkpt lat="51.7797083315" lon="-2.1161763277"><ele>208.26</ele><time>2015-06-03T10:29:50Z</time></trkpt><trkpt lat="51.7796732113" lon="-2.1160399541"><ele>206.34</ele><time>2015-06-03T10:30:07Z</time></trkpt><trkpt lat="51.7796836048" lon="-2.1158383694"><ele>204.90</ele><time>2015-06-03T10:30:25Z</time></trkpt><trkpt lat="51.7796855327" lon="-2.1157348529"><ele>204.42</ele><time>2015-06-03T10:30:33Z</time></trkpt><trkpt lat="51.7797167972" lon="-2.1155225392"><ele>202.01</ele><time>2015-06-03T10:30:49Z</time></trkpt><trkpt lat="51.7797593772" lon="-2.1152873430"><ele>200.09</ele><time>2015-06-03T10:31:06Z</time></trkpt><trkpt lat="51.7797871213" lon="-2.1150547452"><ele>199.13</ele><time>2015-06-03T10:31:22Z</time></trkpt><trkpt lat="51.7798216548" lon="-2.1148270089"><ele>197.21</ele><time>2015-06-03T10:31:39Z</time></trkpt><trkpt lat="51.7798342276" lon="-2.1145657450"><ele>195.28</ele><time>2015-06-03T10:31:58Z</time></trkpt><trkpt lat="51.7798110098" lon="-2.1143156290"><ele>193.84</ele><time>2015-06-03T10:32:17Z</time></trkpt><trkpt lat="51.7797743808" lon="-2.1141926665"><ele>194.32</ele><time>2015-06-03T10:32:32Z</time></trkpt><trkpt lat="51.7797440384" lon="-2.1140000504"><ele>194.32</ele><time>2015-06-03T10:32:48Z</time></trkpt><trkpt lat="51.7797449604" lon="-2.1139968652"><ele>194.32</ele><time>2015-06-03T10:32:56Z</time></trkpt><trkpt lat="51.7797508277" lon="-2.1139909141"><ele>190.48</ele><time>2015-06-03T10:33:08Z</time></trkpt><trkpt lat="51.7797509953" lon="-2.1139908303"><ele>195.77</ele><time>2015-06-03T10:33:10Z</time></trkpt><trkpt lat="51.7797511630" lon="-2.1139909979"><ele>193.84</ele><time>2015-06-03T10:33:11Z</time></trkpt><trkpt lat="51.7797514144" lon="-2.1139913332"><ele>187.11</ele><time>2015-06-03T10:33:12Z</time></trkpt><trkpt lat="51.7797516659" lon="-2.1139917523"><ele>193.36</ele><time>2015-06-03T10:33:13Z</time></trkpt><trkpt lat="51.7797525041" lon="-2.1139930096"><ele>201.53</ele><time>2015-06-03T10:33:16Z</time></trkpt><trkpt lat="51.7797527555" lon="-2.1139931772"><ele>195.28</ele><time>2015-06-03T10:33:17Z</time></trkpt><trkpt lat="51.7797459662" lon="-2.1139938477"><ele>194.32</ele><time>2015-06-03T10:33:19Z</time></trkpt><trkpt lat="51.7797324713" lon="-2.1140027326"><ele>194.32</ele><time>2015-06-03T10:33:42Z</time></trkpt><trkpt lat="51.7797427811" lon="-2.1140020620"><ele>194.80</ele><time>2015-06-03T10:34:12Z</time></trkpt><trkpt lat="51.7797417752" lon="-2.1139914170"><ele>191.44</ele><time>2015-06-03T10:34:32Z</time></trkpt><trkpt lat="51.7797273584" lon="-2.1139701270"><ele>194.32</ele><time>2015-06-03T10:34:34Z</time></trkpt><trkpt lat="51.7797062360" lon="-2.1139436401"><ele>192.88</ele><time>2015-06-03T10:34:36Z</time></trkpt><trkpt lat="51.7796749715" lon="-2.1139018983"><ele>195.28</ele><time>2015-06-03T10:34:39Z</time></trkpt><trkpt lat="51.7796499934" lon="-2.1138854697"><ele>191.92</ele><time>2015-06-03T10:34:42Z</time></trkpt><trkpt lat="51.7796408571" lon="-2.1138899960"><ele>191.92</ele><time>2015-06-03T10:34:43Z</time></trkpt><trkpt lat="51.7796259373" lon="-2.1138972044"><ele>195.28</ele><time>2015-06-03T10:34:45Z</time></trkpt><trkpt lat="51.7796147894" lon="-2.1138991322"><ele>196.25</ele><time>2015-06-03T10:34:47Z</time></trkpt><trkpt lat="51.7796097603" lon="-2.1138994675"><ele>191.44</ele><time>2015-06-03T10:34:48Z</time></trkpt><trkpt lat="51.7796038091" lon="-2.1139005572"><ele>194.80</ele><time>2015-06-03T10:34:49Z</time></trkpt><trkpt lat="51.7795920745" lon="-2.1139043290"><ele>198.65</ele><time>2015-06-03T10:34:51Z</time></trkpt><trkpt lat="51.7795862071" lon="-2.1139060892"><ele>193.84</ele><time>2015-06-03T10:34:52Z</time></trkpt><trkpt lat="51.7795619834" lon="-2.1138906665"><ele>195.77</ele><time>2015-06-03T10:35:18Z</time></trkpt><trkpt lat="51.7795531824" lon="-2.1138889063"><ele>192.40</ele><time>2015-06-03T10:35:35Z</time></trkpt><trkpt lat="51.7795524281" lon="-2.1138886549"><ele>196.73</ele><time>2015-06-03T10:35:36Z</time></trkpt><trkpt lat="51.7795432080" lon="-2.1138841286"><ele>191.92</ele><time>2015-06-03T10:35:37Z</time></trkpt><trkpt lat="51.7795360833" lon="-2.1138845477"><ele>196.25</ele><time>2015-06-03T10:35:38Z</time></trkpt><trkpt lat="51.7795145418" lon="-2.1138786804"><ele>196.73</ele><time>2015-06-03T10:35:59Z</time></trkpt><trkpt lat="51.7795015499" lon="-2.1138485055"><ele>193.36</ele><time>2015-06-03T10:36:18Z</time></trkpt><trkpt lat="51.7794956826" lon="-2.1138405427"><ele>196.73</ele><time>2015-06-03T10:36:19Z</time></trkpt><trkpt lat="51.7794690281" lon="-2.1138153132"><ele>200.09</ele><time>2015-06-03T10:36:26Z</time></trkpt><trkpt lat="51.7794639990" lon="-2.1138140559"><ele>195.77</ele><time>2015-06-03T10:36:27Z</time></trkpt><trkpt lat="51.7794572096" lon="-2.1138117928"><ele>196.25</ele><time>2015-06-03T10:36:28Z</time></trkpt><trkpt lat="51.7794448044" lon="-2.1138096135"><ele>199.61</ele><time>2015-06-03T10:36:30Z</time></trkpt><trkpt lat="51.7794266157" lon="-2.1138044167"><ele>193.36</ele><time>2015-06-03T10:36:32Z</time></trkpt><trkpt lat="51.7794178985" lon="-2.1137994714"><ele>198.65</ele><time>2015-06-03T10:36:33Z</time></trkpt><trkpt lat="51.7793971952" lon="-2.1137951128"><ele>199.61</ele><time>2015-06-03T10:36:35Z</time></trkpt><trkpt lat="51.7793546151" lon="-2.1137838811"><ele>195.77</ele><time>2015-06-03T10:36:40Z</time></trkpt><trkpt lat="51.7793424614" lon="-2.1137840487"><ele>199.13</ele><time>2015-06-03T10:36:41Z</time></trkpt><trkpt lat="51.7793218419" lon="-2.1137732361"><ele>200.57</ele><time>2015-06-03T10:36:43Z</time></trkpt><trkpt lat="51.7792862188" lon="-2.1137442347"><ele>203.94</ele><time>2015-06-03T10:36:48Z</time></trkpt><trkpt lat="51.7792718019" lon="-2.1137335896"><ele>200.09</ele><time>2015-06-03T10:36:50Z</time></trkpt><trkpt lat="51.7792457342" lon="-2.1137106232"><ele>203.46</ele><time>2015-06-03T10:36:53Z</time></trkpt><trkpt lat="51.7792340834" lon="-2.1137099527"><ele>202.49</ele><time>2015-06-03T10:36:54Z</time></trkpt><trkpt lat="51.7791275494" lon="-2.1136712283"><ele>204.90</ele><time>2015-06-03T10:37:02Z</time></trkpt><trkpt lat="51.7790809460" lon="-2.1136395447"><ele>201.53</ele><time>2015-06-03T10:37:05Z</time></trkpt><trkpt lat="51.7790089455" lon="-2.1135777701"><ele>204.90</ele><time>2015-06-03T10:37:10Z</time></trkpt><trkpt lat="51.7789724842" lon="-2.1135087870"><ele>203.46</ele><time>2015-06-03T10:37:14Z</time></trkpt><trkpt lat="51.7789652757" lon="-2.1134727448"><ele>205.38</ele><time>2015-06-03T10:37:16Z</time></trkpt><trkpt lat="51.7788985558" lon="-2.1132655442"><ele>209.22</ele><time>2015-06-03T10:37:26Z</time></trkpt><trkpt lat="51.7788853962" lon="-2.1132585872"><ele>208.26</ele><time>2015-06-03T10:37:27Z</time></trkpt><trkpt lat="51.7788439058" lon="-2.1132225450"><ele>204.42</ele><time>2015-06-03T10:37:30Z</time></trkpt><trkpt lat="51.7788299080" lon="-2.1131932922"><ele>207.78</ele><time>2015-06-03T10:37:32Z</time></trkpt><trkpt lat="51.7788137309" lon="-2.1131635364"><ele>208.74</ele><time>2015-06-03T10:37:34Z</time></trkpt><trkpt lat="51.7786977254" lon="-2.1130403224"><ele>212.11</ele><time>2015-06-03T10:37:48Z</time></trkpt><trkpt lat="51.7786722444" lon="-2.1129902825"><ele>212.59</ele><time>2015-06-03T10:37:52Z</time></trkpt><trkpt lat="51.7786700651" lon="-2.1129722614"><ele>208.74</ele><time>2015-06-03T10:37:53Z</time></trkpt><trkpt lat="51.7786635272" lon="-2.1129146777"><ele>212.59</ele><time>2015-06-03T10:37:56Z</time></trkpt><trkpt lat="51.7786758486" lon="-2.1127619594"><ele>212.59</ele><time>2015-06-03T10:38:02Z</time></trkpt><trkpt lat="51.7786650360" lon="-2.1126755420"><ele>209.70</ele><time>2015-06-03T10:38:07Z</time></trkpt><trkpt lat="51.7786613479" lon="-2.1126270946"><ele>214.03</ele><time>2015-06-03T10:38:10Z</time></trkpt><trkpt lat="51.7786621861" lon="-2.1125643142"><ele>212.11</ele><time>2015-06-03T10:38:13Z</time></trkpt><trkpt lat="51.7786652874" lon="-2.1125250030"><ele>214.51</ele><time>2015-06-03T10:38:15Z</time></trkpt><trkpt lat="51.7786598392" lon="-2.1124215703"><ele>214.03</ele><time>2015-06-03T10:38:22Z</time></trkpt><trkpt lat="51.7786631919" lon="-2.1123991907"><ele>215.47</ele><time>2015-06-03T10:38:24Z</time></trkpt><trkpt lat="51.7786641978" lon="-2.1123850252"><ele>218.36</ele><time>2015-06-03T10:38:25Z</time></trkpt><trkpt lat="51.7786643654" lon="-2.1123678423"><ele>214.51</ele><time>2015-06-03T10:38:26Z</time></trkpt><trkpt lat="51.7786617670" lon="-2.1123225801"><ele>213.07</ele><time>2015-06-03T10:38:28Z</time></trkpt><trkpt lat="51.7786596715" lon="-2.1122982726"><ele>216.43</ele><time>2015-06-03T10:38:29Z</time></trkpt><trkpt lat="51.7786550615" lon="-2.1122805867"><ele>215.95</ele><time>2015-06-03T10:38:30Z</time></trkpt><trkpt lat="51.7786671314" lon="-2.1120485757"><ele>219.32</ele><time>2015-06-03T10:38:43Z</time></trkpt><trkpt lat="51.7786733340" lon="-2.1120078396"><ele>213.55</ele><time>2015-06-03T10:38:45Z</time></trkpt><trkpt lat="51.7786767706" lon="-2.1119876392"><ele>214.03</ele><time>2015-06-03T10:38:46Z</time></trkpt><trkpt lat="51.7786806263" lon="-2.1119402815"><ele>216.91</ele><time>2015-06-03T10:38:48Z</time></trkpt><trkpt lat="51.7786797881" lon="-2.1118537802"><ele>213.55</ele><time>2015-06-03T10:38:52Z</time></trkpt><trkpt lat="51.7786799558" lon="-2.1118305624"><ele>217.40</ele><time>2015-06-03T10:38:53Z</time></trkpt><trkpt lat="51.7786994018" lon="-2.1117570531"><ele>217.88</ele><time>2015-06-03T10:38:57Z</time></trkpt><trkpt lat="51.7787521239" lon="-2.1115250420"><ele>222.68</ele><time>2015-06-03T10:39:09Z</time></trkpt><trkpt lat="51.7787522078" lon="-2.1115110442"><ele>218.36</ele><time>2015-06-03T10:39:10Z</time></trkpt><trkpt lat="51.7787553929" lon="-2.1114429832"><ele>219.80</ele><time>2015-06-03T10:39:14Z</time></trkpt><trkpt lat="51.7787812930" lon="-2.1113608405"><ele>216.91</ele><time>2015-06-03T10:39:31Z</time></trkpt><trkpt lat="51.7787893396" lon="-2.1113534644"><ele>220.76</ele><time>2015-06-03T10:39:32Z</time></trkpt><trkpt lat="51.7788486835" lon="-2.1112991497"><ele>214.03</ele><time>2015-06-03T10:39:40Z</time></trkpt><trkpt lat="51.7788573168" lon="-2.1112891752"><ele>222.20</ele><time>2015-06-03T10:39:41Z</time></trkpt><trkpt lat="51.7788827978" lon="-2.1112522110"><ele>218.36</ele><time>2015-06-03T10:39:44Z</time></trkpt><trkpt lat="51.7788856477" lon="-2.1112387162"><ele>222.20</ele><time>2015-06-03T10:39:45Z</time></trkpt><trkpt lat="51.7789352685" lon="-2.1111678053"><ele>225.57</ele><time>2015-06-03T10:39:53Z</time></trkpt><trkpt lat="51.7789464165" lon="-2.1111615188"><ele>219.80</ele><time>2015-06-03T10:39:54Z</time></trkpt><trkpt lat="51.7789587379" lon="-2.1111323498"><ele>227.97</ele><time>2015-06-03T10:39:56Z</time></trkpt><trkpt lat="51.7789648566" lon="-2.1111153346"><ele>220.76</ele><time>2015-06-03T10:39:57Z</time></trkpt><trkpt lat="51.7789649405" lon="-2.1111023426"><ele>224.12</ele><time>2015-06-03T10:39:58Z</time></trkpt><trkpt lat="51.7789615877" lon="-2.1110799629"><ele>228.93</ele><time>2015-06-03T10:40:00Z</time></trkpt><trkpt lat="51.7789593246" lon="-2.1110753529"><ele>224.12</ele><time>2015-06-03T10:40:01Z</time></trkpt><trkpt lat="51.7789609171" lon="-2.1110538114"><ele>220.28</ele><time>2015-06-03T10:40:06Z</time></trkpt><trkpt lat="51.7789610010" lon="-2.1110388916"><ele>225.57</ele><time>2015-06-03T10:40:07Z</time></trkpt><trkpt lat="51.7789663654" lon="-2.1109953057"><ele>222.20</ele><time>2015-06-03T10:40:10Z</time></trkpt><trkpt lat="51.7789672036" lon="-2.1109860856"><ele>222.68</ele><time>2015-06-03T10:40:11Z</time></trkpt><trkpt lat="51.7789696343" lon="-2.1109794639"><ele>226.05</ele><time>2015-06-03T10:40:12Z</time></trkpt><trkpt lat="51.7789740767" lon="-2.1109725069"><ele>225.09</ele><time>2015-06-03T10:40:13Z</time></trkpt><trkpt lat="51.7789757531" lon="-2.1109538153"><ele>222.20</ele><time>2015-06-03T10:40:15Z</time></trkpt><trkpt lat="51.7789758369" lon="-2.1109412424"><ele>226.53</ele><time>2015-06-03T10:40:16Z</time></trkpt><trkpt lat="51.7789757531" lon="-2.1108960640"><ele>222.68</ele><time>2015-06-03T10:40:19Z</time></trkpt><trkpt lat="51.7789754178" lon="-2.1108777914"><ele>227.01</ele><time>2015-06-03T10:40:20Z</time></trkpt><trkpt lat="51.7789772619" lon="-2.1108646318"><ele>232.30</ele><time>2015-06-03T10:40:21Z</time></trkpt><trkpt lat="51.7789807823" lon="-2.1108564176"><ele>220.76</ele><time>2015-06-03T10:40:22Z</time></trkpt><trkpt lat="51.7789848894" lon="-2.1108485386"><ele>227.01</ele><time>2015-06-03T10:40:23Z</time></trkpt><trkpt lat="51.7789927684" lon="-2.1108260751"><ele>230.37</ele><time>2015-06-03T10:40:25Z</time></trkpt><trkpt lat="51.7789954506" lon="-2.1108102333"><ele>222.68</ele><time>2015-06-03T10:40:26Z</time></trkpt><trkpt lat="51.7789981328" lon="-2.1107953135"><ele>227.97</ele><time>2015-06-03T10:40:27Z</time></trkpt><trkpt lat="51.7790099513" lon="-2.1107760351"><ele>223.64</ele><time>2015-06-03T10:40:29Z</time></trkpt><trkpt lat="51.7790143099" lon="-2.1107649710"><ele>228.93</ele><time>2015-06-03T10:40:30Z</time></trkpt><trkpt lat="51.7790190037" lon="-2.1107453573"><ele>220.28</ele><time>2015-06-03T10:40:32Z</time></trkpt><trkpt lat="51.7790238652" lon="-2.1107377298"><ele>229.41</ele><time>2015-06-03T10:40:33Z</time></trkpt><trkpt lat="51.7790308222" lon="-2.1107257437"><ele>233.74</ele><time>2015-06-03T10:40:34Z</time></trkpt><trkpt lat="51.7790379468" lon="-2.1107156854"><ele>223.16</ele><time>2015-06-03T10:40:35Z</time></trkpt><trkpt lat="51.7790412996" lon="-2.1107047889"><ele>224.12</ele><time>2015-06-03T10:40:36Z</time></trkpt><trkpt lat="51.7790456582" lon="-2.1106912941"><ele>229.41</ele><time>2015-06-03T10:40:37Z</time></trkpt><trkpt lat="51.7790474184" lon="-2.1106807329"><ele>229.41</ele><time>2015-06-03T10:40:38Z</time></trkpt><trkpt lat="51.7790651880" lon="-2.1106147673"><ele>225.57</ele><time>2015-06-03T10:40:43Z</time></trkpt><trkpt lat="51.7790685408" lon="-2.1106029488"><ele>230.37</ele><time>2015-06-03T10:40:44Z</time></trkpt><trkpt lat="51.7790675350" lon="-2.1105791442"><ele>226.05</ele><time>2015-06-03T10:40:46Z</time></trkpt><trkpt lat="51.7790666968" lon="-2.1105690859"><ele>230.37</ele><time>2015-06-03T10:40:47Z</time></trkpt><trkpt lat="51.7790783476" lon="-2.1105405036"><ele>229.41</ele><time>2015-06-03T10:41:10Z</time></trkpt><trkpt lat="51.7790433113" lon="-2.1105094906"><ele>229.41</ele><time>2015-06-03T10:41:36Z</time></trkpt><trkpt lat="51.7790348455" lon="-2.1105023660"><ele>229.89</ele><time>2015-06-03T10:42:00Z</time></trkpt><trkpt lat="51.7790514417" lon="-2.1105245780"><ele>229.89</ele><time>2015-06-03T10:42:23Z</time></trkpt><trkpt lat="51.7790917587" lon="-2.1105489694"><ele>229.89</ele><time>2015-06-03T10:42:54Z</time></trkpt><trkpt lat="51.7791187484" lon="-2.1106175333"><ele>230.37</ele><time>2015-06-03T10:43:15Z</time></trkpt><trkpt lat="51.7791164853" lon="-2.1106170304"><ele>225.09</ele><time>2015-06-03T10:43:21Z</time></trkpt><trkpt lat="51.7791166529" lon="-2.1106167790"><ele>231.33</ele><time>2015-06-03T10:43:22Z</time></trkpt><trkpt lat="51.7791165691" lon="-2.1106166113"><ele>227.01</ele><time>2015-06-03T10:43:23Z</time></trkpt><trkpt lat="51.7791164853" lon="-2.1106166951"><ele>230.37</ele><time>2015-06-03T10:43:24Z</time></trkpt><trkpt lat="51.7791159824" lon="-2.1106162760"><ele>235.18</ele><time>2015-06-03T10:43:25Z</time></trkpt><trkpt lat="51.7791155633" lon="-2.1106156893"><ele>226.05</ele><time>2015-06-03T10:43:26Z</time></trkpt><trkpt lat="51.7791104503" lon="-2.1105928905"><ele>230.85</ele><time>2015-06-03T10:43:27Z</time></trkpt><trkpt lat="51.7791062593" lon="-2.1105770487"><ele>235.18</ele><time>2015-06-03T10:43:28Z</time></trkpt><trkpt lat="51.7791007273" lon="-2.1105627157"><ele>227.49</ele><time>2015-06-03T10:43:29Z</time></trkpt><trkpt lat="51.7790989671" lon="-2.1105547529"><ele>228.45</ele><time>2015-06-03T10:43:30Z</time></trkpt><trkpt lat="51.7790969554" lon="-2.1105452813"><ele>231.81</ele><time>2015-06-03T10:43:31Z</time></trkpt><trkpt lat="51.7790955305" lon="-2.1105361450"><ele>230.37</ele><time>2015-06-03T10:43:32Z</time></trkpt><trkpt lat="51.7790895794" lon="-2.1105142683"><ele>231.81</ele><time>2015-06-03T10:43:35Z</time></trkpt><trkpt lat="51.7790231109" lon="-2.1103737038"><ele>227.01</ele><time>2015-06-03T10:43:42Z</time></trkpt><trkpt lat="51.7790174112" lon="-2.1103553474"><ele>227.97</ele><time>2015-06-03T10:43:43Z</time></trkpt><trkpt lat="51.7790172435" lon="-2.1103545092"><ele>232.78</ele><time>2015-06-03T10:43:44Z</time></trkpt><trkpt lat="51.7790173274" lon="-2.1103535034"><ele>228.45</ele><time>2015-06-03T10:43:46Z</time></trkpt><trkpt lat="51.7790171597" lon="-2.1103531681"><ele>232.78</ele><time>2015-06-03T10:43:47Z</time></trkpt><trkpt lat="51.7790170759" lon="-2.1103530005"><ele>235.66</ele><time>2015-06-03T10:43:48Z</time></trkpt><trkpt lat="51.7790167406" lon="-2.1103528328"><ele>228.93</ele><time>2015-06-03T10:43:49Z</time></trkpt><trkpt lat="51.7790163215" lon="-2.1103528328"><ele>233.26</ele><time>2015-06-03T10:43:50Z</time></trkpt><trkpt lat="51.7790153157" lon="-2.1103535034"><ele>229.89</ele><time>2015-06-03T10:43:52Z</time></trkpt><trkpt lat="51.7790149804" lon="-2.1103544254"><ele>233.26</ele><time>2015-06-03T10:43:53Z</time></trkpt><trkpt lat="51.7790050898" lon="-2.1103540063"><ele>238.54</ele><time>2015-06-03T10:43:59Z</time></trkpt><trkpt lat="51.7790035810" lon="-2.1103539225"><ele>230.85</ele><time>2015-06-03T10:44:00Z</time></trkpt><trkpt lat="51.7789936066" lon="-2.1103479713"><ele>235.18</ele><time>2015-06-03T10:44:02Z</time></trkpt><trkpt lat="51.7789686285" lon="-2.1103203949"><ele>230.37</ele><time>2015-06-03T10:44:07Z</time></trkpt><trkpt lat="51.7789615039" lon="-2.1103150304"><ele>234.22</ele><time>2015-06-03T10:44:08Z</time></trkpt><trkpt lat="51.7789395433" lon="-2.1102953330"><ele>239.51</ele><time>2015-06-03T10:44:11Z</time></trkpt><trkpt lat="51.7789346818" lon="-2.1102851070"><ele>230.85</ele><time>2015-06-03T10:44:12Z</time></trkpt><trkpt lat="51.7789312452" lon="-2.1102731209"><ele>234.70</ele><time>2015-06-03T10:44:13Z</time></trkpt><trkpt lat="51.7789081112" lon="-2.1102265175"><ele>236.14</ele><time>2015-06-03T10:44:18Z</time></trkpt><trkpt lat="51.7788933590" lon="-2.1102150343"><ele>232.30</ele><time>2015-06-03T10:44:20Z</time></trkpt><trkpt lat="51.7788823787" lon="-2.1102061495"><ele>235.66</ele><time>2015-06-03T10:44:21Z</time></trkpt><trkpt lat="51.7788644414" lon="-2.1101875417"><ele>231.81</ele><time>2015-06-03T10:44:23Z</time></trkpt><trkpt lat="51.7788588256" lon="-2.1101786569"><ele>235.66</ele><time>2015-06-03T10:44:24Z</time></trkpt><trkpt lat="51.7786906846" lon="-2.1098595578"><ele>239.02</ele><time>2015-06-03T10:44:40Z</time></trkpt><trkpt lat="51.7786796205" lon="-2.1098350827"><ele>236.14</ele><time>2015-06-03T10:44:41Z</time></trkpt><trkpt lat="51.7786625214" lon="-2.1097976156"><ele>239.02</ele><time>2015-06-03T10:44:43Z</time></trkpt><trkpt lat="51.7786551453" lon="-2.1097779181"><ele>233.74</ele><time>2015-06-03T10:44:44Z</time></trkpt><trkpt lat="51.7786512896" lon="-2.1097686142"><ele>233.74</ele><time>2015-06-03T10:44:45Z</time></trkpt><trkpt lat="51.7786443327" lon="-2.1097495873"><ele>237.58</ele><time>2015-06-03T10:44:46Z</time></trkpt><trkpt lat="51.7786367051" lon="-2.1097302251"><ele>237.10</ele><time>2015-06-03T10:44:47Z</time></trkpt><trkpt lat="51.7786053568" lon="-2.1096169017"><ele>241.43</ele><time>2015-06-03T10:44:54Z</time></trkpt><trkpt lat="51.7785983998" lon="-2.1096027363"><ele>235.66</ele><time>2015-06-03T10:44:55Z</time></trkpt><trkpt lat="51.7785895988" lon="-2.1095919237"><ele>236.14</ele><time>2015-06-03T10:44:56Z</time></trkpt><trkpt lat="51.7785891797" lon="-2.1095908340"><ele>239.99</ele><time>2015-06-03T10:44:59Z</time></trkpt><trkpt lat="51.7785887606" lon="-2.1095899958"><ele>234.22</ele><time>2015-06-03T10:45:00Z</time></trkpt><trkpt lat="51.7785885092" lon="-2.1095892414"><ele>239.02</ele><time>2015-06-03T10:45:01Z</time></trkpt><trkpt lat="51.7785883415" lon="-2.1095890738"><ele>241.91</ele><time>2015-06-03T10:45:02Z</time></trkpt><trkpt lat="51.7785885092" lon="-2.1095887385"><ele>237.58</ele><time>2015-06-03T10:45:03Z</time></trkpt><trkpt lat="51.7784943804" lon="-2.1093726531"><ele>243.83</ele><time>2015-06-03T10:45:20Z</time></trkpt><trkpt lat="51.7784764431" lon="-2.1093319170"><ele>239.51</ele><time>2015-06-03T10:45:22Z</time></trkpt><trkpt lat="51.7784611043" lon="-2.1093167458"><ele>240.47</ele><time>2015-06-03T10:45:23Z</time></trkpt><trkpt lat="51.7784185242" lon="-2.1092533786"><ele>243.83</ele><time>2015-06-03T10:45:28Z</time></trkpt><trkpt lat="51.7784154229" lon="-2.1092440747"><ele>237.58</ele><time>2015-06-03T10:45:29Z</time></trkpt><trkpt lat="51.7784117348" lon="-2.1092350222"><ele>241.91</ele><time>2015-06-03T10:45:30Z</time></trkpt><trkpt lat="51.7784190271" lon="-2.1091730800"><ele>244.79</ele><time>2015-06-03T10:45:36Z</time></trkpt><trkpt lat="51.7784144171" lon="-2.1091602556"><ele>239.02</ele><time>2015-06-03T10:45:37Z</time></trkpt><trkpt lat="51.7784097232" lon="-2.1091506165"><ele>242.87</ele><time>2015-06-03T10:45:38Z</time></trkpt><trkpt lat="51.7783999164" lon="-2.1091281530"><ele>239.51</ele><time>2015-06-03T10:45:40Z</time></trkpt><trkpt lat="51.7783946358" lon="-2.1091157477"><ele>243.35</ele><time>2015-06-03T10:45:41Z</time></trkpt><trkpt lat="51.7783719208" lon="-2.1090684738"><ele>236.14</ele><time>2015-06-03T10:45:45Z</time></trkpt><trkpt lat="51.7783669755" lon="-2.1090579964"><ele>244.31</ele><time>2015-06-03T10:45:46Z</time></trkpt><trkpt lat="51.7783425003" lon="-2.1089796256"><ele>248.16</ele><time>2015-06-03T10:45:51Z</time></trkpt><trkpt lat="51.7783427518" lon="-2.1089654602"><ele>239.02</ele><time>2015-06-03T10:45:52Z</time></trkpt><trkpt lat="51.7783528101" lon="-2.1089750156"><ele>245.27</ele><time>2015-06-03T10:45:53Z</time></trkpt><trkpt lat="51.7783399858" lon="-2.1088670567"><ele>248.64</ele><time>2015-06-03T10:45:59Z</time></trkpt><trkpt lat="51.7783363815" lon="-2.1088503767"><ele>241.43</ele><time>2015-06-03T10:46:00Z</time></trkpt><trkpt lat="51.7783307657" lon="-2.1088336129"><ele>245.27</ele><time>2015-06-03T10:46:01Z</time></trkpt><trkpt lat="51.7783061229" lon="-2.1087697428"><ele>241.91</ele><time>2015-06-03T10:46:05Z</time></trkpt><trkpt lat="51.7782989144" lon="-2.1087564994"><ele>246.72</ele><time>2015-06-03T10:46:06Z</time></trkpt><trkpt lat="51.7782673147" lon="-2.1087046154"><ele>242.87</ele><time>2015-06-03T10:46:12Z</time></trkpt><trkpt lat="51.7782639619" lon="-2.1086974069"><ele>246.72</ele><time>2015-06-03T10:46:13Z</time></trkpt><trkpt lat="51.7782272492" lon="-2.1086286753"><ele>246.72</ele><time>2015-06-03T10:46:19Z</time></trkpt><trkpt lat="51.7782212980" lon="-2.1086092293"><ele>242.87</ele><time>2015-06-03T10:46:21Z</time></trkpt><trkpt lat="51.7782211304" lon="-2.1085964888"><ele>247.68</ele><time>2015-06-03T10:46:22Z</time></trkpt><trkpt lat="51.7782202084" lon="-2.1085831616"><ele>248.16</ele><time>2015-06-03T10:46:24Z</time></trkpt><trkpt lat="51.7782204598" lon="-2.1085833292"><ele>242.87</ele><time>2015-06-03T10:46:25Z</time></trkpt><trkpt lat="51.7782210466" lon="-2.1085834969"><ele>247.68</ele><time>2015-06-03T10:46:26Z</time></trkpt><trkpt lat="51.7782201245" lon="-2.1085583512"><ele>242.87</ele><time>2015-06-03T10:46:30Z</time></trkpt><trkpt lat="51.7782203760" lon="-2.1085404139"><ele>248.64</ele><time>2015-06-03T10:46:31Z</time></trkpt><trkpt lat="51.7782170232" lon="-2.1085056290"><ele>247.20</ele><time>2015-06-03T10:46:34Z</time></trkpt><trkpt lat="51.7782169394" lon="-2.1085047908"><ele>252.96</ele><time>2015-06-03T10:46:37Z</time></trkpt><trkpt lat="51.7782168556" lon="-2.1085040364"><ele>245.27</ele><time>2015-06-03T10:46:38Z</time></trkpt><trkpt lat="51.7782166880" lon="-2.1085033659"><ele>249.12</ele><time>2015-06-03T10:46:39Z</time></trkpt><trkpt lat="51.7782124132" lon="-2.1084883623"><ele>245.27</ele><time>2015-06-03T10:46:43Z</time></trkpt><trkpt lat="51.7782093119" lon="-2.1084795613"><ele>249.12</ele><time>2015-06-03T10:46:44Z</time></trkpt><trkpt lat="51.7782054562" lon="-2.1084692515"><ele>252.96</ele><time>2015-06-03T10:46:45Z</time></trkpt><trkpt lat="51.7782006785" lon="-2.1084596962"><ele>245.75</ele><time>2015-06-03T10:46:46Z</time></trkpt><trkpt lat="51.7781943921" lon="-2.1084513981"><ele>249.12</ele><time>2015-06-03T10:46:47Z</time></trkpt><trkpt lat="51.7781653069" lon="-2.1084300242"><ele>249.60</ele><time>2015-06-03T10:46:51Z</time></trkpt><trkpt lat="51.7781473696" lon="-2.1084245760"><ele>250.56</ele><time>2015-06-03T10:46:53Z</time></trkpt><trkpt lat="51.7781416699" lon="-2.1084253304"><ele>247.20</ele><time>2015-06-03T10:46:54Z</time></trkpt><trkpt lat="51.7781360541" lon="-2.1084260847"><ele>250.56</ele><time>2015-06-03T10:46:55Z</time></trkpt><trkpt lat="51.7781298514" lon="-2.1084268391"><ele>252.48</ele><time>2015-06-03T10:46:56Z</time></trkpt><trkpt lat="51.7781243194" lon="-2.1084275935"><ele>247.68</ele><time>2015-06-03T10:46:57Z</time></trkpt><trkpt lat="51.7781181168" lon="-2.1084284317"><ele>248.16</ele><time>2015-06-03T10:46:58Z</time></trkpt><trkpt lat="51.7781119142" lon="-2.1084291860"><ele>251.04</ele><time>2015-06-03T10:46:59Z</time></trkpt><trkpt lat="51.7781063821" lon="-2.1084299404"><ele>253.93</ele><time>2015-06-03T10:47:00Z</time></trkpt><trkpt lat="51.7780983355" lon="-2.1084309462"><ele>248.16</ele><time>2015-06-03T10:47:01Z</time></trkpt><trkpt lat="51.7780945636" lon="-2.1084314492"><ele>249.60</ele><time>2015-06-03T10:47:02Z</time></trkpt><trkpt lat="51.7780821584" lon="-2.1084330417"><ele>253.93</ele><time>2015-06-03T10:47:04Z</time></trkpt><trkpt lat="51.7780735251" lon="-2.1084342152"><ele>246.72</ele><time>2015-06-03T10:47:05Z</time></trkpt><trkpt lat="51.7780611198" lon="-2.1084358077"><ele>247.68</ele><time>2015-06-03T10:47:07Z</time></trkpt><trkpt lat="51.7780555878" lon="-2.1084365621"><ele>251.04</ele><time>2015-06-03T10:47:08Z</time></trkpt><trkpt lat="51.7780499719" lon="-2.1084373165"><ele>253.93</ele><time>2015-06-03T10:47:09Z</time></trkpt><trkpt lat="51.7780437693" lon="-2.1084380709"><ele>251.04</ele><time>2015-06-03T10:47:10Z</time></trkpt><trkpt lat="51.7780375667" lon="-2.1084389091"><ele>247.20</ele><time>2015-06-03T10:47:11Z</time></trkpt><trkpt lat="51.7780320346" lon="-2.1084395796"><ele>251.04</ele><time>2015-06-03T10:47:12Z</time></trkpt><trkpt lat="51.7780258320" lon="-2.1084404178"><ele>254.89</ele><time>2015-06-03T10:47:13Z</time></trkpt><trkpt lat="51.7780203000" lon="-2.1084411722"><ele>249.12</ele><time>2015-06-03T10:47:14Z</time></trkpt><trkpt lat="51.7780383211" lon="-2.1081060637"><ele>251.52</ele><time>2015-06-03T10:47:17Z</time></trkpt><trkpt lat="51.7780208029" lon="-2.1080311295"><ele>254.41</ele><time>2015-06-03T10:47:21Z</time></trkpt><trkpt lat="51.7780164443" lon="-2.1080124378"><ele>248.64</ele><time>2015-06-03T10:47:22Z</time></trkpt><trkpt lat="51.7780077271" lon="-2.1079749707"><ele>252.00</ele><time>2015-06-03T10:47:24Z</time></trkpt><trkpt lat="51.7779861856" lon="-2.1078830212"><ele>248.64</ele><time>2015-06-03T10:47:29Z</time></trkpt><trkpt lat="51.7779818270" lon="-2.1078642458"><ele>252.48</ele><time>2015-06-03T10:47:30Z</time></trkpt><trkpt lat="51.7779643089" lon="-2.1077892277"><ele>249.12</ele><time>2015-06-03T10:47:34Z</time></trkpt><trkpt lat="51.7779598664" lon="-2.1077704523"><ele>252.96</ele><time>2015-06-03T10:47:35Z</time></trkpt><trkpt lat="51.7780269217" lon="-2.1077789180"><ele>250.56</ele><time>2015-06-03T10:47:43Z</time></trkpt><trkpt lat="51.7780226469" lon="-2.1077690274"><ele>255.37</ele><time>2015-06-03T10:47:45Z</time></trkpt><trkpt lat="51.7780194618" lon="-2.1077634953"><ele>251.04</ele><time>2015-06-03T10:47:46Z</time></trkpt><trkpt lat="51.7780116666" lon="-2.1077444684"><ele>255.37</ele><time>2015-06-03T10:47:49Z</time></trkpt><trkpt lat="51.7780091520" lon="-2.1077380981"><ele>251.52</ele><time>2015-06-03T10:47:50Z</time></trkpt><trkpt lat="51.7780040391" lon="-2.1077299677"><ele>252.00</ele><time>2015-06-03T10:47:51Z</time></trkpt><trkpt lat="51.7779976688" lon="-2.1077204123"><ele>253.93</ele><time>2015-06-03T10:47:52Z</time></trkpt><trkpt lat="51.7779322062" lon="-2.1076127049"><ele>251.52</ele><time>2015-06-03T10:47:58Z</time></trkpt><trkpt lat="51.7778976727" lon="-2.1075453144"><ele>253.44</ele><time>2015-06-03T10:48:01Z</time></trkpt><trkpt lat="51.7778255045" lon="-2.1074319910"><ele>250.56</ele><time>2015-06-03T10:48:08Z</time></trkpt><trkpt lat="51.7778077349" lon="-2.1074177418"><ele>253.93</ele><time>2015-06-03T10:48:10Z</time></trkpt><trkpt lat="51.7777798232" lon="-2.1073988825"><ele>250.56</ele><time>2015-06-03T10:48:14Z</time></trkpt><trkpt lat="51.7777716089" lon="-2.1073893271"><ele>253.93</ele><time>2015-06-03T10:48:15Z</time></trkpt><trkpt lat="51.7776949983" lon="-2.1072671190"><ele>253.93</ele><time>2015-06-03T10:48:24Z</time></trkpt><trkpt lat="51.7776576988" lon="-2.1072786022"><ele>253.93</ele><time>2015-06-03T10:48:28Z</time></trkpt><trkpt lat="51.7775884643" lon="-2.1072141454"><ele>251.04</ele><time>2015-06-03T10:48:37Z</time></trkpt><trkpt lat="51.7775825132" lon="-2.1072029136"><ele>255.85</ele><time>2015-06-03T10:48:38Z</time></trkpt><trkpt lat="51.7775747180" lon="-2.1071930230"><ele>249.12</ele><time>2015-06-03T10:48:39Z</time></trkpt><trkpt lat="51.7775673419" lon="-2.1071769297"><ele>252.96</ele><time>2015-06-03T10:48:40Z</time></trkpt><trkpt lat="51.7775603849" lon="-2.1071667038"><ele>249.60</ele><time>2015-06-03T10:48:41Z</time></trkpt><trkpt lat="51.7775547691" lon="-2.1071587410"><ele>252.96</ele><time>2015-06-03T10:48:42Z</time></trkpt><trkpt lat="51.7775478121" lon="-2.1071543824"><ele>257.77</ele><time>2015-06-03T10:48:43Z</time></trkpt><trkpt lat="51.7775420286" lon="-2.1071545500"><ele>253.93</ele><time>2015-06-03T10:48:44Z</time></trkpt><trkpt lat="51.7775360774" lon="-2.1071569808"><ele>256.81</ele><time>2015-06-03T10:48:45Z</time></trkpt><trkpt lat="51.7775307968" lon="-2.1071563102"><ele>248.16</ele><time>2015-06-03T10:48:46Z</time></trkpt><trkpt lat="51.7775253486" lon="-2.1071555559"><ele>252.96</ele><time>2015-06-03T10:48:47Z</time></trkpt><trkpt lat="51.7775207385" lon="-2.1071586572"><ele>248.64</ele><time>2015-06-03T10:48:48Z</time></trkpt><trkpt lat="51.7775095906" lon="-2.1071578190"><ele>253.44</ele><time>2015-06-03T10:48:50Z</time></trkpt><trkpt lat="51.7775010411" lon="-2.1071559750"><ele>253.93</ele><time>2015-06-03T10:48:51Z</time></trkpt><trkpt lat="51.7774809245" lon="-2.1071501076"><ele>257.29</ele><time>2015-06-03T10:48:54Z</time></trkpt><trkpt lat="51.7774807569" lon="-2.1071499400"><ele>248.16</ele><time>2015-06-03T10:48:55Z</time></trkpt><trkpt lat="51.7774803378" lon="-2.1071496885"><ele>253.44</ele><time>2015-06-03T10:48:56Z</time></trkpt><trkpt lat="51.7773259431" lon="-2.1070128959"><ele>253.44</ele><time>2015-06-03T10:49:14Z</time></trkpt><trkpt lat="51.7772250250" lon="-2.1069192700"><ele>253.93</ele><time>2015-06-03T10:49:27Z</time></trkpt><trkpt lat="51.7771425471" lon="-2.1068627760"><ele>254.41</ele><time>2015-06-03T10:49:38Z</time></trkpt><trkpt lat="51.7771211732" lon="-2.1068341937"><ele>252.48</ele><time>2015-06-03T10:49:41Z</time></trkpt><trkpt lat="51.7770879809" lon="-2.1068125684"><ele>249.12</ele><time>2015-06-03T10:49:45Z</time></trkpt><trkpt lat="51.7770821974" lon="-2.1068098024"><ele>253.44</ele><time>2015-06-03T10:49:46Z</time></trkpt><trkpt lat="51.7770651821" lon="-2.1068087965"><ele>254.41</ele><time>2015-06-03T10:49:48Z</time></trkpt><trkpt lat="51.7770585604" lon="-2.1068071201"><ele>253.44</ele><time>2015-06-03T10:50:07Z</time></trkpt><trkpt lat="51.7770149745" lon="-2.1068068687"><ele>259.21</ele><time>2015-06-03T10:50:22Z</time></trkpt><trkpt lat="51.7770101130" lon="-2.1068092994"><ele>252.48</ele><time>2015-06-03T10:50:23Z</time></trkpt><trkpt lat="51.7769533675" lon="-2.1067583375"><ele>257.77</ele><time>2015-06-03T10:50:32Z</time></trkpt><trkpt lat="51.7769476678" lon="-2.1067467704"><ele>249.12</ele><time>2015-06-03T10:50:33Z</time></trkpt><trkpt lat="51.7769430578" lon="-2.1067350358"><ele>253.93</ele><time>2015-06-03T10:50:34Z</time></trkpt><trkpt lat="51.7768348474" lon="-2.1065852512"><ele>251.04</ele><time>2015-06-03T10:50:48Z</time></trkpt><trkpt lat="51.7768287286" lon="-2.1065746900"><ele>254.41</ele><time>2015-06-03T10:50:49Z</time></trkpt><trkpt lat="51.7768099532" lon="-2.1065382287"><ele>251.04</ele><time>2015-06-03T10:50:52Z</time></trkpt><trkpt lat="51.7767716479" lon="-2.1064917929"><ele>255.37</ele><time>2015-06-03T10:50:59Z</time></trkpt><trkpt lat="51.7767667864" lon="-2.1064806450"><ele>249.12</ele><time>2015-06-03T10:51:00Z</time></trkpt><trkpt lat="51.7767607514" lon="-2.1064668149"><ele>254.41</ele><time>2015-06-03T10:51:01Z</time></trkpt><trkpt lat="51.7767553870" lon="-2.1064545773"><ele>257.77</ele><time>2015-06-03T10:51:02Z</time></trkpt><trkpt lat="51.7767499387" lon="-2.1064374782"><ele>254.41</ele><time>2015-06-03T10:51:03Z</time></trkpt><trkpt lat="51.7766579054" lon="-2.1062081493"><ele>249.60</ele><time>2015-06-03T10:51:22Z</time></trkpt><trkpt lat="51.7766521219" lon="-2.1061984263"><ele>253.93</ele><time>2015-06-03T10:51:23Z</time></trkpt><trkpt lat="51.7765979748" lon="-2.1061488055"><ele>255.37</ele><time>2015-06-03T10:51:29Z</time></trkpt><trkpt lat="51.7765079532" lon="-2.1060131025"><ele>256.33</ele><time>2015-06-03T10:51:42Z</time></trkpt><trkpt lat="51.7765037622" lon="-2.1060079057"><ele>252.48</ele><time>2015-06-03T10:51:43Z</time></trkpt><trkpt lat="51.7764940392" lon="-2.1059749648"><ele>257.77</ele><time>2015-06-03T10:51:46Z</time></trkpt><trkpt lat="51.7764924467" lon="-2.1059601288"><ele>254.89</ele><time>2015-06-03T10:51:47Z</time></trkpt><trkpt lat="51.7764864117" lon="-2.1059217397"><ele>250.56</ele><time>2015-06-03T10:51:50Z</time></trkpt><trkpt lat="51.7764824722" lon="-2.1059139445"><ele>252.00</ele><time>2015-06-03T10:51:51Z</time></trkpt><trkpt lat="51.7764657084" lon="-2.1058874577"><ele>255.85</ele><time>2015-06-03T10:51:54Z</time></trkpt><trkpt lat="51.7764574103" lon="-2.1058740467"><ele>252.48</ele><time>2015-06-03T10:51:55Z</time></trkpt><trkpt lat="51.7764477711" lon="-2.1058553550"><ele>252.96</ele><time>2015-06-03T10:51:56Z</time></trkpt><trkpt lat="51.7764278222" lon="-2.1058310475"><ele>253.44</ele><time>2015-06-03T10:51:58Z</time></trkpt><trkpt lat="51.7763874214" lon="-2.1058036387"><ele>253.44</ele><time>2015-06-03T10:52:04Z</time></trkpt><trkpt lat="51.7763427459" lon="-2.1056199912"><ele>253.93</ele><time>2015-06-03T10:52:22Z</time></trkpt><trkpt lat="51.7763320170" lon="-2.1056059934"><ele>252.48</ele><time>2015-06-03T10:52:26Z</time></trkpt><trkpt lat="51.7763002496" lon="-2.1055805124"><ele>256.81</ele><time>2015-06-03T10:52:32Z</time></trkpt><trkpt lat="51.7762922030" lon="-2.1055587195"><ele>252.00</ele><time>2015-06-03T10:52:33Z</time></trkpt><trkpt lat="51.7762774508" lon="-2.1055059973"><ele>255.85</ele><time>2015-06-03T10:52:36Z</time></trkpt><trkpt lat="51.7762370501" lon="-2.1053762455"><ele>251.52</ele><time>2015-06-03T10:52:46Z</time></trkpt><trkpt lat="51.7762241419" lon="-2.1053417120"><ele>254.89</ele><time>2015-06-03T10:52:48Z</time></trkpt><trkpt lat="51.7762150895" lon="-2.1053226013"><ele>254.89</ele><time>2015-06-03T10:52:49Z</time></trkpt><trkpt lat="51.7761747725" lon="-2.1052635089"><ele>255.85</ele><time>2015-06-03T10:52:54Z</time></trkpt><trkpt lat="51.7761679832" lon="-2.1052500140"><ele>252.48</ele><time>2015-06-03T10:52:55Z</time></trkpt><trkpt lat="51.7761614453" lon="-2.1052351780"><ele>254.41</ele><time>2015-06-03T10:52:56Z</time></trkpt><trkpt lat="51.7761486210" lon="-2.1052142233"><ele>254.89</ele><time>2015-06-03T10:52:58Z</time></trkpt><trkpt lat="51.7761193682" lon="-2.1051137242"><ele>252.96</ele><time>2015-06-03T10:53:13Z</time></trkpt><trkpt lat="51.7761186138" lon="-2.1051120479"><ele>254.89</ele><time>2015-06-03T10:53:16Z</time></trkpt><trkpt lat="51.7760469485" lon="-2.1049633529"><ele>258.73</ele><time>2015-06-03T10:53:24Z</time></trkpt><trkpt lat="51.7760417517" lon="-2.1049237903"><ele>254.41</ele><time>2015-06-03T10:53:25Z</time></trkpt><trkpt lat="51.7760419194" lon="-2.1048890054"><ele>261.62</ele><time>2015-06-03T10:53:26Z</time></trkpt><trkpt lat="51.7760419194" lon="-2.1048641950"><ele>252.96</ele><time>2015-06-03T10:53:27Z</time></trkpt><trkpt lat="51.7760370579" lon="-2.1048152447"><ele>258.73</ele><time>2015-06-03T10:53:30Z</time></trkpt><trkpt lat="51.7760321125" lon="-2.1047991514"><ele>253.93</ele><time>2015-06-03T10:53:31Z</time></trkpt><trkpt lat="51.7759927176" lon="-2.1047010832"><ele>252.48</ele><time>2015-06-03T10:53:36Z</time></trkpt><trkpt lat="51.7759441864" lon="-2.1045686491"><ele>257.29</ele><time>2015-06-03T10:53:43Z</time></trkpt><trkpt lat="51.7759400792" lon="-2.1045604348"><ele>253.93</ele><time>2015-06-03T10:53:44Z</time></trkpt><trkpt lat="51.7758685816" lon="-2.1043109894"><ele>253.44</ele><time>2015-06-03T10:54:04Z</time></trkpt><trkpt lat="51.7758667376" lon="-2.1043627057"><ele>256.81</ele><time>2015-06-03T10:54:15Z</time></trkpt><trkpt lat="51.7758622114" lon="-2.1043721773"><ele>252.96</ele><time>2015-06-03T10:54:16Z</time></trkpt><trkpt lat="51.7758325394" lon="-2.1044072974"><ele>252.96</ele><time>2015-06-03T10:54:23Z</time></trkpt><trkpt lat="51.7757141031" lon="-2.1039820835"><ele>253.44</ele><time>2015-06-03T10:54:42Z</time></trkpt><trkpt lat="51.7756510712" lon="-2.1037138626"><ele>250.56</ele><time>2015-06-03T10:54:59Z</time></trkpt><trkpt lat="51.7756394204" lon="-2.1036882140"><ele>254.41</ele><time>2015-06-03T10:55:01Z</time></trkpt><trkpt lat="51.7756259255" lon="-2.1036689356"><ele>251.04</ele><time>2015-06-03T10:55:03Z</time></trkpt><trkpt lat="51.7755975947" lon="-2.1036302950"><ele>254.41</ele><time>2015-06-03T10:55:07Z</time></trkpt><trkpt lat="51.7755830102" lon="-2.1035972703"><ele>250.56</ele><time>2015-06-03T10:55:09Z</time></trkpt><trkpt lat="51.7755474709" lon="-2.1035551094"><ele>253.93</ele><time>2015-06-03T10:55:14Z</time></trkpt><trkpt lat="51.7755480576" lon="-2.1034660097"><ele>252.00</ele><time>2015-06-03T10:55:17Z</time></trkpt><trkpt lat="51.7755497340" lon="-2.1033283789"><ele>255.85</ele><time>2015-06-03T10:55:24Z</time></trkpt><trkpt lat="51.7755504046" lon="-2.1033196617"><ele>251.52</ele><time>2015-06-03T10:55:25Z</time></trkpt><trkpt lat="51.7755618040" lon="-2.1032935940"><ele>250.56</ele><time>2015-06-03T10:55:44Z</time></trkpt><trkpt lat="51.7755618878" lon="-2.1032868046"><ele>257.29</ele><time>2015-06-03T10:55:45Z</time></trkpt><trkpt lat="51.7755621392" lon="-2.1032820269"><ele>251.04</ele><time>2015-06-03T10:55:46Z</time></trkpt><trkpt lat="51.7756019533" lon="-2.1032937616"><ele>253.93</ele><time>2015-06-03T10:55:56Z</time></trkpt><trkpt lat="51.7756500654" lon="-2.1033821907"><ele>251.04</ele><time>2015-06-03T10:56:11Z</time></trkpt><trkpt lat="51.7756486405" lon="-2.1033825260"><ele>254.41</ele><time>2015-06-03T10:56:12Z</time></trkpt><trkpt lat="51.7756462935" lon="-2.1033894829"><ele>251.04</ele><time>2015-06-03T10:56:18Z</time></trkpt><trkpt lat="51.7756457068" lon="-2.1033901535"><ele>256.81</ele><time>2015-06-03T10:56:19Z</time></trkpt><trkpt lat="51.7756432761" lon="-2.1033925004"><ele>249.60</ele><time>2015-06-03T10:56:22Z</time></trkpt><trkpt lat="51.7756426893" lon="-2.1033931710"><ele>253.93</ele><time>2015-06-03T10:56:23Z</time></trkpt><trkpt lat="51.7756291106" lon="-2.1032778360"><ele>252.48</ele><time>2015-06-03T10:56:39Z</time></trkpt><trkpt lat="51.7756387498" lon="-2.1033321507"><ele>252.00</ele><time>2015-06-03T10:56:49Z</time></trkpt><trkpt lat="51.7756381631" lon="-2.1033194102"><ele>257.29</ele><time>2015-06-03T10:57:01Z</time></trkpt><trkpt lat="51.7756343074" lon="-2.1033126209"><ele>250.56</ele><time>2015-06-03T10:57:02Z</time></trkpt><trkpt lat="51.7756331339" lon="-2.1033122018"><ele>253.93</ele><time>2015-06-03T10:57:03Z</time></trkpt><trkpt lat="51.7755737063" lon="-2.1034235973"><ele>251.04</ele><time>2015-06-03T10:57:21Z</time></trkpt><trkpt lat="51.7755518295" lon="-2.1034717094"><ele>252.96</ele><time>2015-06-03T10:57:24Z</time></trkpt><trkpt lat="51.7755431123" lon="-2.1034883056"><ele>249.60</ele><time>2015-06-03T10:57:25Z</time></trkpt><trkpt lat="51.7755057290" lon="-2.1035314724"><ele>252.96</ele><time>2015-06-03T10:57:28Z</time></trkpt><trkpt lat="51.7754788231" lon="-2.1035583783"><ele>253.93</ele><time>2015-06-03T10:57:30Z</time></trkpt><trkpt lat="51.7754565272" lon="-2.1035826858"><ele>250.08</ele><time>2015-06-03T10:57:32Z</time></trkpt><trkpt lat="51.7754225805" lon="-2.1036415268"><ele>251.52</ele><time>2015-06-03T10:57:35Z</time></trkpt><trkpt lat="51.7754007038" lon="-2.1036748029"><ele>248.16</ele><time>2015-06-03T10:57:37Z</time></trkpt><trkpt lat="51.7753943335" lon="-2.1036968473"><ele>249.60</ele><time>2015-06-03T10:57:38Z</time></trkpt><trkpt lat="51.7753841914" lon="-2.1037372481"><ele>252.96</ele><time>2015-06-03T10:57:40Z</time></trkpt><trkpt lat="51.7753866222" lon="-2.1038089134"><ele>250.08</ele><time>2015-06-03T10:57:44Z</time></trkpt><trkpt lat="51.7753859516" lon="-2.1038277727"><ele>249.60</ele><time>2015-06-03T10:57:45Z</time></trkpt><trkpt lat="51.7753835209" lon="-2.1038629767"><ele>252.48</ele><time>2015-06-03T10:57:47Z</time></trkpt><trkpt lat="51.7753672600" lon="-2.1039816644"><ele>254.89</ele><time>2015-06-03T10:57:53Z</time></trkpt><trkpt lat="51.7753642425" lon="-2.1040067263"><ele>251.52</ele><time>2015-06-03T10:57:54Z</time></trkpt><trkpt lat="51.7753660865" lon="-2.1040484682"><ele>251.52</ele><time>2015-06-03T10:57:56Z</time></trkpt><trkpt lat="51.7753598001" lon="-2.1040923893"><ele>252.48</ele><time>2015-06-03T10:57:58Z</time></trkpt><trkpt lat="51.7753185611" lon="-2.1043218859"><ele>248.16</ele><time>2015-06-03T10:58:11Z</time></trkpt><trkpt lat="51.7753142864" lon="-2.1043331176"><ele>251.52</ele><time>2015-06-03T10:58:12Z</time></trkpt><trkpt lat="51.7753085028" lon="-2.1043413319"><ele>254.41</ele><time>2015-06-03T10:58:13Z</time></trkpt><trkpt lat="51.7753035575" lon="-2.1043562517"><ele>254.89</ele><time>2015-06-03T10:58:14Z</time></trkpt><trkpt lat="51.7752989475" lon="-2.1043717582"><ele>251.04</ele><time>2015-06-03T10:58:15Z</time></trkpt><trkpt lat="51.7752937507" lon="-2.1043887734"><ele>246.72</ele><time>2015-06-03T10:58:16Z</time></trkpt><trkpt lat="51.7752891406" lon="-2.1044041961"><ele>252.96</ele><time>2015-06-03T10:58:17Z</time></trkpt><trkpt lat="51.7752873804" lon="-2.1044150926"><ele>247.20</ele><time>2015-06-03T10:58:18Z</time></trkpt><trkpt lat="51.7752803396" lon="-2.1044390649"><ele>252.48</ele><time>2015-06-03T10:58:20Z</time></trkpt><trkpt lat="51.7752754781" lon="-2.1044536494"><ele>252.48</ele><time>2015-06-03T10:58:21Z</time></trkpt><trkpt lat="51.7752584629" lon="-2.1045046952"><ele>248.64</ele><time>2015-06-03T10:58:25Z</time></trkpt><trkpt lat="51.7752557807" lon="-2.1045277454"><ele>252.48</ele><time>2015-06-03T10:58:27Z</time></trkpt><trkpt lat="51.7752548587" lon="-2.1045376360"><ele>252.00</ele><time>2015-06-03T10:58:28Z</time></trkpt><trkpt lat="51.7752403580" lon="-2.1045694873"><ele>248.64</ele><time>2015-06-03T10:58:33Z</time></trkpt><trkpt lat="51.7752397712" lon="-2.1045703255"><ele>250.08</ele><time>2015-06-03T10:58:34Z</time></trkpt><trkpt lat="51.7752290424" lon="-2.1046348661"><ele>253.44</ele><time>2015-06-03T10:58:36Z</time></trkpt><trkpt lat="51.7752223369" lon="-2.1047191881"><ele>249.12</ele><time>2015-06-03T10:58:39Z</time></trkpt><trkpt lat="51.7752173916" lon="-2.1047419868"><ele>250.08</ele><time>2015-06-03T10:58:40Z</time></trkpt><trkpt lat="51.7752057407" lon="-2.1048403904"><ele>250.56</ele><time>2015-06-03T10:58:48Z</time></trkpt><trkpt lat="51.7751254421" lon="-2.1051256265"><ele>251.04</ele><time>2015-06-03T10:59:04Z</time></trkpt><trkpt lat="51.7751008831" lon="-2.1052062605"><ele>249.60</ele><time>2015-06-03T10:59:09Z</time></trkpt><trkpt lat="51.7750432994" lon="-2.1053803526"><ele>252.48</ele><time>2015-06-03T10:59:31Z</time></trkpt><trkpt lat="51.7750316486" lon="-2.1054064203"><ele>247.20</ele><time>2015-06-03T10:59:33Z</time></trkpt><trkpt lat="51.7750246916" lon="-2.1054158080"><ele>248.64</ele><time>2015-06-03T10:59:34Z</time></trkpt><trkpt lat="51.7749888171" lon="-2.1054817736"><ele>248.64</ele><time>2015-06-03T10:59:39Z</time></trkpt><trkpt lat="51.7749134637" lon="-2.1056702826"><ele>254.89</ele><time>2015-06-03T10:59:53Z</time></trkpt><trkpt lat="51.7749096081" lon="-2.1056822687"><ele>249.12</ele><time>2015-06-03T10:59:54Z</time></trkpt><trkpt lat="51.7748815287" lon="-2.1057554428"><ele>248.16</ele><time>2015-06-03T10:59:59Z</time></trkpt><trkpt lat="51.7748268787" lon="-2.1058717836"><ele>249.12</ele><time>2015-06-03T11:00:15Z</time></trkpt><trkpt lat="51.7747435626" lon="-2.1060155332"><ele>244.31</ele><time>2015-06-03T11:00:27Z</time></trkpt><trkpt lat="51.7747293133" lon="-2.1060353145"><ele>247.68</ele><time>2015-06-03T11:00:29Z</time></trkpt><trkpt lat="51.7747061793" lon="-2.1060658246"><ele>244.31</ele><time>2015-06-03T11:00:32Z</time></trkpt><trkpt lat="51.7746960372" lon="-2.1060866956"><ele>247.68</ele><time>2015-06-03T11:00:34Z</time></trkpt><trkpt lat="51.7746893317" lon="-2.1060964186"><ele>244.31</ele><time>2015-06-03T11:00:35Z</time></trkpt><trkpt lat="51.7746754177" lon="-2.1061249170"><ele>247.68</ele><time>2015-06-03T11:00:37Z</time></trkpt><trkpt lat="51.7746542115" lon="-2.1061595343"><ele>243.83</ele><time>2015-06-03T11:00:40Z</time></trkpt><trkpt lat="51.7746486794" lon="-2.1061694250"><ele>240.95</ele><time>2015-06-03T11:00:41Z</time></trkpt><trkpt lat="51.7746423930" lon="-2.1061803214"><ele>255.37</ele><time>2015-06-03T11:00:42Z</time></trkpt><trkpt lat="51.7746328376" lon="-2.1061923075"><ele>246.23</ele><time>2015-06-03T11:00:43Z</time></trkpt><trkpt lat="51.7746224441" lon="-2.1061999351"><ele>242.87</ele><time>2015-06-03T11:00:44Z</time></trkpt><trkpt lat="51.7746082786" lon="-2.1062078979"><ele>245.27</ele><time>2015-06-03T11:00:45Z</time></trkpt><trkpt lat="51.7744964641" lon="-2.1063046250"><ele>246.23</ele><time>2015-06-03T11:00:55Z</time></trkpt><trkpt lat="51.7744926084" lon="-2.1063099056"><ele>243.35</ele><time>2015-06-03T11:00:56Z</time></trkpt><trkpt lat="51.7744725756" lon="-2.1063349675"><ele>244.79</ele><time>2015-06-03T11:00:59Z</time></trkpt><trkpt lat="51.7743719928" lon="-2.1064080577"><ele>242.87</ele><time>2015-06-03T11:01:09Z</time></trkpt><trkpt lat="51.7743607610" lon="-2.1064113267"><ele>244.31</ele><time>2015-06-03T11:01:10Z</time></trkpt><trkpt lat="51.7743262276" lon="-2.1064215526"><ele>247.68</ele><time>2015-06-03T11:01:13Z</time></trkpt><trkpt lat="51.7743284907" lon="-2.1064417530"><ele>242.39</ele><time>2015-06-03T11:01:14Z</time></trkpt><trkpt lat="51.7743652873" lon="-2.1064595226"><ele>243.35</ele><time>2015-06-03T11:01:33Z</time></trkpt><trkpt lat="51.7743433267" lon="-2.1064045373"><ele>242.39</ele><time>2015-06-03T11:01:57Z</time></trkpt><trkpt lat="51.7743202765" lon="-2.1062899567"><ele>244.79</ele><time>2015-06-03T11:02:04Z</time></trkpt><trkpt lat="51.7742792051" lon="-2.1062153578"><ele>248.64</ele><time>2015-06-03T11:02:17Z</time></trkpt><trkpt lat="51.7742712423" lon="-2.1062079817"><ele>245.27</ele><time>2015-06-03T11:02:18Z</time></trkpt><trkpt lat="51.7742132396" lon="-2.1061742865"><ele>241.91</ele><time>2015-06-03T11:02:23Z</time></trkpt><trkpt lat="51.7741963919" lon="-2.1061633062"><ele>245.75</ele><time>2015-06-03T11:02:24Z</time></trkpt><trkpt lat="51.7741505429" lon="-2.1061581094"><ele>241.91</ele><time>2015-06-03T11:02:28Z</time></trkpt><trkpt lat="51.7741417419" lon="-2.1061602049"><ele>245.27</ele><time>2015-06-03T11:02:29Z</time></trkpt><trkpt lat="51.7741288338" lon="-2.1061617136"><ele>243.83</ele><time>2015-06-03T11:02:37Z</time></trkpt><trkpt lat="51.7741299234" lon="-2.1061549243"><ele>248.16</ele><time>2015-06-03T11:02:39Z</time></trkpt><trkpt lat="51.7741388083" lon="-2.1061196364"><ele>243.83</ele><time>2015-06-03T11:02:43Z</time></trkpt><trkpt lat="51.7741393112" lon="-2.1061141882"><ele>245.75</ele><time>2015-06-03T11:02:44Z</time></trkpt><trkpt lat="51.7741392273" lon="-2.1061141044"><ele>247.20</ele><time>2015-06-03T11:02:46Z</time></trkpt><trkpt lat="51.7741386406" lon="-2.1061140206"><ele>242.87</ele><time>2015-06-03T11:02:47Z</time></trkpt><trkpt lat="51.7741376348" lon="-2.1061131824"><ele>245.75</ele><time>2015-06-03T11:02:48Z</time></trkpt><trkpt lat="51.7741289176" lon="-2.1061039623"><ele>246.23</ele><time>2015-06-03T11:02:50Z</time></trkpt><trkpt lat="51.7741004191" lon="-2.1060990170"><ele>242.87</ele><time>2015-06-03T11:02:57Z</time></trkpt><trkpt lat="51.7740996648" lon="-2.1060940716"><ele>247.20</ele><time>2015-06-03T11:02:59Z</time></trkpt><trkpt lat="51.7740993295" lon="-2.1060866117"><ele>242.39</ele><time>2015-06-03T11:03:02Z</time></trkpt><trkpt lat="51.7740993295" lon="-2.1060833428"><ele>245.75</ele><time>2015-06-03T11:03:03Z</time></trkpt><trkpt lat="51.7740933783" lon="-2.1060572751"><ele>244.79</ele><time>2015-06-03T11:03:09Z</time></trkpt><trkpt lat="51.7740047816" lon="-2.1056910697"><ele>247.68</ele><time>2015-06-03T11:03:16Z</time></trkpt><trkpt lat="51.7739948072" lon="-2.1056734677"><ele>244.79</ele><time>2015-06-03T11:03:18Z</time></trkpt><trkpt lat="51.7739657219" lon="-2.1056725457"><ele>244.31</ele><time>2015-06-03T11:03:34Z</time></trkpt><trkpt lat="51.7739712540" lon="-2.1056308877"><ele>244.79</ele><time>2015-06-03T11:03:49Z</time></trkpt><trkpt lat="51.7739568371" lon="-2.1055127867"><ele>242.39</ele><time>2015-06-03T11:04:01Z</time></trkpt><trkpt lat="51.7739568371" lon="-2.1054944303"><ele>245.75</ele><time>2015-06-03T11:04:04Z</time></trkpt><trkpt lat="51.7739576753" lon="-2.1054882277"><ele>242.87</ele><time>2015-06-03T11:04:05Z</time></trkpt><trkpt lat="51.7739561666" lon="-2.1054585557"><ele>246.23</ele><time>2015-06-03T11:04:09Z</time></trkpt><trkpt lat="51.7739450186" lon="-2.1054558735"><ele>241.91</ele><time>2015-06-03T11:04:13Z</time></trkpt><trkpt lat="51.7739436775" lon="-2.1054603159"><ele>241.91</ele><time>2015-06-03T11:04:14Z</time></trkpt><trkpt lat="51.7739455216" lon="-2.1054711286"><ele>247.20</ele><time>2015-06-03T11:04:16Z</time></trkpt><trkpt lat="51.7739415821" lon="-2.1054716315"><ele>242.39</ele><time>2015-06-03T11:04:17Z</time></trkpt><trkpt lat="51.7739074677" lon="-2.1054635011"><ele>238.06</ele><time>2015-06-03T11:04:24Z</time></trkpt><trkpt lat="51.7739044502" lon="-2.1054519340"><ele>244.31</ele><time>2015-06-03T11:04:25Z</time></trkpt><trkpt lat="51.7739026062" lon="-2.1054409537"><ele>240.95</ele><time>2015-06-03T11:04:26Z</time></trkpt><trkpt lat="51.7739094794" lon="-2.1054100245"><ele>248.64</ele><time>2015-06-03T11:04:29Z</time></trkpt><trkpt lat="51.7739057075" lon="-2.1053722221"><ele>245.27</ele><time>2015-06-03T11:04:31Z</time></trkpt><trkpt lat="51.7738916259" lon="-2.1053164825"><ele>243.35</ele><time>2015-06-03T11:04:33Z</time></trkpt><trkpt lat="51.7738855910" lon="-2.1052893251"><ele>237.58</ele><time>2015-06-03T11:04:34Z</time></trkpt><trkpt lat="51.7738837469" lon="-2.1052676998"><ele>248.64</ele><time>2015-06-03T11:04:35Z</time></trkpt><trkpt lat="51.7738833278" lon="-2.1052490920"><ele>243.83</ele><time>2015-06-03T11:04:36Z</time></trkpt><trkpt lat="51.7737410031" lon="-2.1043399069"><ele>241.91</ele><time>2015-06-03T11:04:55Z</time></trkpt><trkpt lat="51.7737197131" lon="-2.1043766197"><ele>238.54</ele><time>2015-06-03T11:05:12Z</time></trkpt><trkpt lat="51.7737182043" lon="-2.1043793019"><ele>242.87</ele><time>2015-06-03T11:05:13Z</time></trkpt><trkpt lat="51.7736684997" lon="-2.1043485403"><ele>239.99</ele><time>2015-06-03T11:05:23Z</time></trkpt><trkpt lat="51.7735752091" lon="-2.1041583549"><ele>236.14</ele><time>2015-06-03T11:05:34Z</time></trkpt><trkpt lat="51.7735680006" lon="-2.1041378193"><ele>241.43</ele><time>2015-06-03T11:05:35Z</time></trkpt><trkpt lat="51.7735234927" lon="-2.1040617116"><ele>245.75</ele><time>2015-06-03T11:05:39Z</time></trkpt><trkpt lat="51.7735144403" lon="-2.1040429361"><ele>241.43</ele><time>2015-06-03T11:05:40Z</time></trkpt><trkpt lat="51.7735058907" lon="-2.1040242445"><ele>236.62</ele><time>2015-06-03T11:05:41Z</time></trkpt><trkpt lat="51.7734977603" lon="-2.1040075645"><ele>238.54</ele><time>2015-06-03T11:05:42Z</time></trkpt><trkpt lat="51.7734893784" lon="-2.1039923094"><ele>241.91</ele><time>2015-06-03T11:05:43Z</time></trkpt><trkpt lat="51.7734701000" lon="-2.1039731149"><ele>243.35</ele><time>2015-06-03T11:05:45Z</time></trkpt><trkpt lat="51.7734624725" lon="-2.1039646491"><ele>233.26</ele><time>2015-06-03T11:05:46Z</time></trkpt><trkpt lat="51.7734560184" lon="-2.1039548423"><ele>240.95</ele><time>2015-06-03T11:05:47Z</time></trkpt><trkpt lat="51.7734493967" lon="-2.1039436106"><ele>236.62</ele><time>2015-06-03T11:05:48Z</time></trkpt><trkpt lat="51.7734420206" lon="-2.1039343905"><ele>239.99</ele><time>2015-06-03T11:05:49Z</time></trkpt><trkpt lat="51.7734218203" lon="-2.1039206441"><ele>243.35</ele><time>2015-06-03T11:05:51Z</time></trkpt><trkpt lat="51.7734006140" lon="-2.1039048024"><ele>238.06</ele><time>2015-06-03T11:05:53Z</time></trkpt><trkpt lat="51.7733919807" lon="-2.1038965881"><ele>238.54</ele><time>2015-06-03T11:05:54Z</time></trkpt><trkpt lat="51.7733846046" lon="-2.1038883738"><ele>241.91</ele><time>2015-06-03T11:05:55Z</time></trkpt><trkpt lat="51.7733560223" lon="-2.1038583666"><ele>237.58</ele><time>2015-06-03T11:05:59Z</time></trkpt><trkpt lat="51.7733454611" lon="-2.1038461290"><ele>243.83</ele><time>2015-06-03T11:06:00Z</time></trkpt><trkpt lat="51.7733320501" lon="-2.1038151998"><ele>239.02</ele><time>2015-06-03T11:06:02Z</time></trkpt><trkpt lat="51.7733275238" lon="-2.1038076561"><ele>243.35</ele><time>2015-06-03T11:06:03Z</time></trkpt><trkpt lat="51.7733197287" lon="-2.1037970949"><ele>238.06</ele><time>2015-06-03T11:06:04Z</time></trkpt><trkpt lat="51.7732963432" lon="-2.1037758049"><ele>242.39</ele><time>2015-06-03T11:06:06Z</time></trkpt><trkpt lat="51.7732787412" lon="-2.1037504077"><ele>238.54</ele><time>2015-06-03T11:06:08Z</time></trkpt><trkpt lat="51.7732664198" lon="-2.1037353203"><ele>240.95</ele><time>2015-06-03T11:06:09Z</time></trkpt><trkpt lat="51.7732219119" lon="-2.1037143655"><ele>245.27</ele><time>2015-06-03T11:06:15Z</time></trkpt><trkpt lat="51.7732152902" lon="-2.1037094202"><ele>239.51</ele><time>2015-06-03T11:06:16Z</time></trkpt><trkpt lat="51.7732082494" lon="-2.1036953386"><ele>240.95</ele><time>2015-06-03T11:06:17Z</time></trkpt><trkpt lat="51.7731969338" lon="-2.1036768984"><ele>242.87</ele><time>2015-06-03T11:06:19Z</time></trkpt><trkpt lat="51.7731889710" lon="-2.1036686841"><ele>239.51</ele><time>2015-06-03T11:06:20Z</time></trkpt><trkpt lat="51.7731696088" lon="-2.1036513336"><ele>245.75</ele><time>2015-06-03T11:06:22Z</time></trkpt><trkpt lat="51.7731605563" lon="-2.1036426164"><ele>239.51</ele><time>2015-06-03T11:06:23Z</time></trkpt><trkpt lat="51.7731538508" lon="-2.1036336478"><ele>240.95</ele><time>2015-06-03T11:06:24Z</time></trkpt><trkpt lat="51.7731366679" lon="-2.1036204044"><ele>242.39</ele><time>2015-06-03T11:06:26Z</time></trkpt><trkpt lat="51.7731285375" lon="-2.1036151238"><ele>246.72</ele><time>2015-06-03T11:06:27Z</time></trkpt><trkpt lat="51.7731219158" lon="-2.1036086697"><ele>240.47</ele><time>2015-06-03T11:06:28Z</time></trkpt><trkpt lat="51.7730971891" lon="-2.1035451349"><ele>244.79</ele><time>2015-06-03T11:06:31Z</time></trkpt><trkpt lat="51.7730894778" lon="-2.1035267785"><ele>240.47</ele><time>2015-06-03T11:06:32Z</time></trkpt><trkpt lat="51.7730818503" lon="-2.1035118587"><ele>240.95</ele><time>2015-06-03T11:06:33Z</time></trkpt><trkpt lat="51.7730682716" lon="-2.1034917422"><ele>244.31</ele><time>2015-06-03T11:06:35Z</time></trkpt><trkpt lat="51.7730594706" lon="-2.1034841146"><ele>244.31</ele><time>2015-06-03T11:06:36Z</time></trkpt><trkpt lat="51.7730513401" lon="-2.1034785826"><ele>240.47</ele><time>2015-06-03T11:06:37Z</time></trkpt><trkpt lat="51.7730417848" lon="-2.1034720447"><ele>241.43</ele><time>2015-06-03T11:06:38Z</time></trkpt><trkpt lat="51.7730044853" lon="-2.1034381818"><ele>243.35</ele><time>2015-06-03T11:06:42Z</time></trkpt><trkpt lat="51.7729974445" lon="-2.1034329850"><ele>239.02</ele><time>2015-06-03T11:06:43Z</time></trkpt><trkpt lat="51.7729890626" lon="-2.1034282912"><ele>242.87</ele><time>2015-06-03T11:06:44Z</time></trkpt><trkpt lat="51.7729548644" lon="-2.1033594757"><ele>242.39</ele><time>2015-06-03T11:06:48Z</time></trkpt><trkpt lat="51.7728948500" lon="-2.1033352520"><ele>242.39</ele><time>2015-06-03T11:07:08Z</time></trkpt><trkpt lat="51.7728236038" lon="-2.1032826975"><ele>243.83</ele><time>2015-06-03T11:07:26Z</time></trkpt><trkpt lat="51.7727186624" lon="-2.1031782590"><ele>240.47</ele><time>2015-06-03T11:07:38Z</time></trkpt><trkpt lat="51.7727174051" lon="-2.1031712182"><ele>243.83</ele><time>2015-06-03T11:07:39Z</time></trkpt><trkpt lat="51.7726765852" lon="-2.1031493414"><ele>239.99</ele><time>2015-06-03T11:07:46Z</time></trkpt><trkpt lat="51.7726712208" lon="-2.1031440608"><ele>242.87</ele><time>2015-06-03T11:07:47Z</time></trkpt><trkpt lat="51.7726465780" lon="-2.1031173225"><ele>244.79</ele><time>2015-06-03T11:07:53Z</time></trkpt><trkpt lat="51.7726379447" lon="-2.1030980442"><ele>242.39</ele><time>2015-06-03T11:07:55Z</time></trkpt><trkpt lat="51.7726304010" lon="-2.1030609123"><ele>247.20</ele><time>2015-06-03T11:08:00Z</time></trkpt><trkpt lat="51.7726224381" lon="-2.1030557994"><ele>245.75</ele><time>2015-06-03T11:08:01Z</time></trkpt><trkpt lat="51.7726157326" lon="-2.1030450705"><ele>239.99</ele><time>2015-06-03T11:08:02Z</time></trkpt><trkpt lat="51.7726117931" lon="-2.1030314080"><ele>241.91</ele><time>2015-06-03T11:08:03Z</time></trkpt><trkpt lat="51.7726013158" lon="-2.1029975452"><ele>246.23</ele><time>2015-06-03T11:08:05Z</time></trkpt><trkpt lat="51.7725972086" lon="-2.1029848047"><ele>239.51</ele><time>2015-06-03T11:08:06Z</time></trkpt><trkpt lat="51.7725723982" lon="-2.1029217727"><ele>243.83</ele><time>2015-06-03T11:08:09Z</time></trkpt><trkpt lat="51.7725561373" lon="-2.1028684638"><ele>239.99</ele><time>2015-06-03T11:08:12Z</time></trkpt><trkpt lat="51.7725487612" lon="-2.1028538793"><ele>243.83</ele><time>2015-06-03T11:08:13Z</time></trkpt><trkpt lat="51.7725308239" lon="-2.1028090362"><ele>241.91</ele><time>2015-06-03T11:08:16Z</time></trkpt><trkpt lat="51.7725150660" lon="-2.1027692221"><ele>237.58</ele><time>2015-06-03T11:08:21Z</time></trkpt><trkpt lat="51.7725122999" lon="-2.1027579065"><ele>243.83</ele><time>2015-06-03T11:08:22Z</time></trkpt><trkpt lat="51.7724993918" lon="-2.1027021669"><ele>239.51</ele><time>2015-06-03T11:08:26Z</time></trkpt><trkpt lat="51.7724941112" lon="-2.1026895940"><ele>244.79</ele><time>2015-06-03T11:08:27Z</time></trkpt><trkpt lat="51.7724865675" lon="-2.1026381291"><ele>239.51</ele><time>2015-06-03T11:08:30Z</time></trkpt><trkpt lat="51.7724831309" lon="-2.1026294958"><ele>243.83</ele><time>2015-06-03T11:08:31Z</time></trkpt><trkpt lat="51.7724739108" lon="-2.1025961358"><ele>239.02</ele><time>2015-06-03T11:08:37Z</time></trkpt><trkpt lat="51.7724738270" lon="-2.1025959682"><ele>250.08</ele><time>2015-06-03T11:08:38Z</time></trkpt><trkpt lat="51.7724741623" lon="-2.1025958844"><ele>244.79</ele><time>2015-06-03T11:08:39Z</time></trkpt><trkpt lat="51.7724733241" lon="-2.1025964711"><ele>247.20</ele><time>2015-06-03T11:08:42Z</time></trkpt><trkpt lat="51.7724697199" lon="-2.1025864128"><ele>244.79</ele><time>2015-06-03T11:08:44Z</time></trkpt><trkpt lat="51.7724489328" lon="-2.1025385521"><ele>244.31</ele><time>2015-06-03T11:08:59Z</time></trkpt><trkpt lat="51.7724398803" lon="-2.1025202796"><ele>240.95</ele><time>2015-06-03T11:09:05Z</time></trkpt><trkpt lat="51.7724347673" lon="-2.1025234647"><ele>244.31</ele><time>2015-06-03T11:09:06Z</time></trkpt><trkpt lat="51.7724207696" lon="-2.1025270689"><ele>245.27</ele><time>2015-06-03T11:09:08Z</time></trkpt><trkpt lat="51.7724028323" lon="-2.1025189385"><ele>240.95</ele><time>2015-06-03T11:09:11Z</time></trkpt><trkpt lat="51.7723975517" lon="-2.1025122330"><ele>243.83</ele><time>2015-06-03T11:09:12Z</time></trkpt><trkpt lat="51.7723845597" lon="-2.1024827287"><ele>235.18</ele><time>2015-06-03T11:09:15Z</time></trkpt><trkpt lat="51.7723795306" lon="-2.1024753526"><ele>244.79</ele><time>2015-06-03T11:09:16Z</time></trkpt><trkpt lat="51.7723474279" lon="-2.1024092194"><ele>239.02</ele><time>2015-06-03T11:09:19Z</time></trkpt><trkpt lat="51.7723402195" lon="-2.1023932099"><ele>242.87</ele><time>2015-06-03T11:09:20Z</time></trkpt><trkpt lat="51.7723361123" lon="-2.1023799665"><ele>237.10</ele><time>2015-06-03T11:09:21Z</time></trkpt><trkpt lat="51.7723356932" lon="-2.1023616940"><ele>244.79</ele><time>2015-06-03T11:09:22Z</time></trkpt><trkpt lat="51.7723273952" lon="-2.1022900287"><ele>243.83</ele><time>2015-06-03T11:09:26Z</time></trkpt><trkpt lat="51.7723033391" lon="-2.1021893620"><ele>246.72</ele><time>2015-06-03T11:09:35Z</time></trkpt><trkpt lat="51.7722489405" lon="-2.1020330396"><ele>239.02</ele><time>2015-06-03T11:09:44Z</time></trkpt><trkpt lat="51.7722420674" lon="-2.1020189580"><ele>244.79</ele><time>2015-06-03T11:09:45Z</time></trkpt><trkpt lat="51.7722255550" lon="-2.1019482985"><ele>245.75</ele><time>2015-06-03T11:09:49Z</time></trkpt><trkpt lat="51.7722186819" lon="-2.1019361448"><ele>242.39</ele><time>2015-06-03T11:09:50Z</time></trkpt><trkpt lat="51.7722139042" lon="-2.1019218955"><ele>243.35</ele><time>2015-06-03T11:09:51Z</time></trkpt><trkpt lat="51.7722065281" lon="-2.1019005217"><ele>246.72</ele><time>2015-06-03T11:09:53Z</time></trkpt><trkpt lat="51.7722011637" lon="-2.1018800698"><ele>242.87</ele><time>2015-06-03T11:09:55Z</time></trkpt><trkpt lat="51.7721942067" lon="-2.1018581931"><ele>245.75</ele><time>2015-06-03T11:09:58Z</time></trkpt><trkpt lat="51.7721824721" lon="-2.1018281858"><ele>240.47</ele><time>2015-06-03T11:10:01Z</time></trkpt><trkpt lat="51.7721784487" lon="-2.1018128470"><ele>242.87</ele><time>2015-06-03T11:10:02Z</time></trkpt><trkpt lat="51.7721635289" lon="-2.1017831750"><ele>248.16</ele><time>2015-06-03T11:10:04Z</time></trkpt><trkpt lat="51.7721571587" lon="-2.1017727815"><ele>244.79</ele><time>2015-06-03T11:10:05Z</time></trkpt><trkpt lat="51.7721542250" lon="-2.1017575264"><ele>240.95</ele><time>2015-06-03T11:10:06Z</time></trkpt><trkpt lat="51.7721487768" lon="-2.1017461270"><ele>244.79</ele><time>2015-06-03T11:10:07Z</time></trkpt><trkpt lat="51.7721316777" lon="-2.1017120127"><ele>239.51</ele><time>2015-06-03T11:10:10Z</time></trkpt><trkpt lat="51.7721267324" lon="-2.1016993560"><ele>243.83</ele><time>2015-06-03T11:10:11Z</time></trkpt><trkpt lat="51.7721157521" lon="-2.1016672533"><ele>247.68</ele><time>2015-06-03T11:10:13Z</time></trkpt><trkpt lat="51.7721009161" lon="-2.1016283613"><ele>242.39</ele><time>2015-06-03T11:10:16Z</time></trkpt><trkpt lat="51.7720967252" lon="-2.1016218234"><ele>245.27</ele><time>2015-06-03T11:10:18Z</time></trkpt><trkpt lat="51.7720955517" lon="-2.1016209014"><ele>244.31</ele><time>2015-06-03T11:10:19Z</time></trkpt><trkpt lat="51.7720366269" lon="-2.1014506649"><ele>243.83</ele><time>2015-06-03T11:10:36Z</time></trkpt><trkpt lat="51.7720289156" lon="-2.1013665944"><ele>244.31</ele><time>2015-06-03T11:10:53Z</time></trkpt><trkpt lat="51.7720299214" lon="-2.1013674326"><ele>247.20</ele><time>2015-06-03T11:11:15Z</time></trkpt><trkpt lat="51.7720333580" lon="-2.1013636608"><ele>244.31</ele><time>2015-06-03T11:11:16Z</time></trkpt><trkpt lat="51.7720300052" lon="-2.1013517585"><ele>248.16</ele><time>2015-06-03T11:11:18Z</time></trkpt><trkpt lat="51.7720243055" lon="-2.1013345756"><ele>244.79</ele><time>2015-06-03T11:11:36Z</time></trkpt><trkpt lat="51.7720041052" lon="-2.1013130341"><ele>248.16</ele><time>2015-06-03T11:11:44Z</time></trkpt><trkpt lat="51.7719968129" lon="-2.1013038978"><ele>246.72</ele><time>2015-06-03T11:11:45Z</time></trkpt><trkpt lat="51.7719893530" lon="-2.1012955159"><ele>242.39</ele><time>2015-06-03T11:11:46Z</time></trkpt><trkpt lat="51.7719821446" lon="-2.1012853738"><ele>242.87</ele><time>2015-06-03T11:11:47Z</time></trkpt><trkpt lat="51.7719701584" lon="-2.1012672689"><ele>246.72</ele><time>2015-06-03T11:11:49Z</time></trkpt><trkpt lat="51.7719654646" lon="-2.1012639161"><ele>248.16</ele><time>2015-06-03T11:11:51Z</time></trkpt><trkpt lat="51.7719622795" lon="-2.1012510918"><ele>245.27</ele><time>2015-06-03T11:11:52Z</time></trkpt><trkpt lat="51.7719624471" lon="-2.1012506727"><ele>241.43</ele><time>2015-06-03T11:11:53Z</time></trkpt><trkpt lat="51.7719631176" lon="-2.1012370940"><ele>247.20</ele><time>2015-06-03T11:11:54Z</time></trkpt><trkpt lat="51.7719619442" lon="-2.1012310591"><ele>242.87</ele><time>2015-06-03T11:12:00Z</time></trkpt><trkpt lat="51.7719615251" lon="-2.1012293827"><ele>244.31</ele><time>2015-06-03T11:12:01Z</time></trkpt><trkpt lat="51.7719374690" lon="-2.1011780854"><ele>245.75</ele><time>2015-06-03T11:12:11Z</time></trkpt><trkpt lat="51.7719324399" lon="-2.1011629142"><ele>242.39</ele><time>2015-06-03T11:12:12Z</time></trkpt><trkpt lat="51.7719321046" lon="-2.1011608187"><ele>244.79</ele><time>2015-06-03T11:12:13Z</time></trkpt><trkpt lat="51.7718247324" lon="-2.1008661110"><ele>241.43</ele><time>2015-06-03T11:12:34Z</time></trkpt><trkpt lat="51.7717580963" lon="-2.1006996464"><ele>247.20</ele><time>2015-06-03T11:12:38Z</time></trkpt><trkpt lat="51.7717435956" lon="-2.1006799489"><ele>243.35</ele><time>2015-06-03T11:12:39Z</time></trkpt><trkpt lat="51.7717335373" lon="-2.1005546395"><ele>239.51</ele><time>2015-06-03T11:12:48Z</time></trkpt><trkpt lat="51.7717295978" lon="-2.1005336009"><ele>244.79</ele><time>2015-06-03T11:12:49Z</time></trkpt><trkpt lat="51.7717221379" lon="-2.1004475188"><ele>243.83</ele><time>2015-06-03T11:12:56Z</time></trkpt><trkpt lat="51.7716791388" lon="-2.1002535615"><ele>244.79</ele><time>2015-06-03T11:13:10Z</time></trkpt><trkpt lat="51.7716649733" lon="-2.1002316847"><ele>245.75</ele><time>2015-06-03T11:13:12Z</time></trkpt><trkpt lat="51.7715837527" lon="-2.0999912918"><ele>246.72</ele><time>2015-06-03T11:13:28Z</time></trkpt><trkpt lat="51.7715770472" lon="-2.0999786351"><ele>244.31</ele><time>2015-06-03T11:13:30Z</time></trkpt><trkpt lat="51.7715579364" lon="-2.0998145174"><ele>243.83</ele><time>2015-06-03T11:13:48Z</time></trkpt><trkpt lat="51.7715438548" lon="-2.0997449476"><ele>247.20</ele><time>2015-06-03T11:13:52Z</time></trkpt><trkpt lat="51.7715367302" lon="-2.0997278485"><ele>242.87</ele><time>2015-06-03T11:13:53Z</time></trkpt><trkpt lat="51.7715279292" lon="-2.0997087378"><ele>245.75</ele><time>2015-06-03T11:13:54Z</time></trkpt><trkpt lat="51.7714783084" lon="-2.0995666645"><ele>246.23</ele><time>2015-06-03T11:14:04Z</time></trkpt><trkpt lat="51.7714772187" lon="-2.0995644853"><ele>243.35</ele><time>2015-06-03T11:14:06Z</time></trkpt><trkpt lat="51.7714767996" lon="-2.0995634794"><ele>244.79</ele><time>2015-06-03T11:14:07Z</time></trkpt><trkpt lat="51.7714630533" lon="-2.0995384175"><ele>249.60</ele><time>2015-06-03T11:14:09Z</time></trkpt><trkpt lat="51.7714538332" lon="-2.0995155349"><ele>245.27</ele><time>2015-06-03T11:14:10Z</time></trkpt><trkpt lat="51.7714229040" lon="-2.0994351525"><ele>248.16</ele><time>2015-06-03T11:14:13Z</time></trkpt><trkpt lat="51.7714129295" lon="-2.0994076598"><ele>247.68</ele><time>2015-06-03T11:14:14Z</time></trkpt><trkpt lat="51.7714018654" lon="-2.0993822627"><ele>241.43</ele><time>2015-06-03T11:14:15Z</time></trkpt><trkpt lat="51.7713908851" lon="-2.0993579552"><ele>245.75</ele><time>2015-06-03T11:14:16Z</time></trkpt><trkpt lat="51.7713817488" lon="-2.0993356593"><ele>242.39</ele><time>2015-06-03T11:14:17Z</time></trkpt><trkpt lat="51.7713779770" lon="-2.0993202366"><ele>246.23</ele><time>2015-06-03T11:14:18Z</time></trkpt><trkpt lat="51.7713690922" lon="-2.0992910676"><ele>247.20</ele><time>2015-06-03T11:14:20Z</time></trkpt><trkpt lat="51.7713620514" lon="-2.0992726274"><ele>242.39</ele><time>2015-06-03T11:14:21Z</time></trkpt><trkpt lat="51.7713555973" lon="-2.0992588811"><ele>245.27</ele><time>2015-06-03T11:14:22Z</time></trkpt><trkpt lat="51.7713395040" lon="-2.0992394350"><ele>243.35</ele><time>2015-06-03T11:14:26Z</time></trkpt><trkpt lat="51.7713291105" lon="-2.0992315561"><ele>246.23</ele><time>2015-06-03T11:14:27Z</time></trkpt><trkpt lat="51.7713097483" lon="-2.0992126130"><ele>244.79</ele><time>2015-06-03T11:14:28Z</time></trkpt><trkpt lat="51.7712842673" lon="-2.0991856232"><ele>248.16</ele><time>2015-06-03T11:14:30Z</time></trkpt><trkpt lat="51.7712633125" lon="-2.0991655067"><ele>244.31</ele><time>2015-06-03T11:14:32Z</time></trkpt><trkpt lat="51.7712506559" lon="-2.0991546102"><ele>247.20</ele><time>2015-06-03T11:14:34Z</time></trkpt><trkpt lat="51.7712442856" lon="-2.0991325658"><ele>242.39</ele><time>2015-06-03T11:14:36Z</time></trkpt><trkpt lat="51.7712434474" lon="-2.0991125330"><ele>246.23</ele><time>2015-06-03T11:14:37Z</time></trkpt><trkpt lat="51.7712520808" lon="-2.0990088489"><ele>245.27</ele><time>2015-06-03T11:14:41Z</time></trkpt><trkpt lat="51.7712480575" lon="-2.0989663526"><ele>248.64</ele><time>2015-06-03T11:14:44Z</time></trkpt><trkpt lat="51.7712431960" lon="-2.0989604015"><ele>245.27</ele><time>2015-06-03T11:14:45Z</time></trkpt><trkpt lat="51.7712089140" lon="-2.0988920052"><ele>245.75</ele><time>2015-06-03T11:14:51Z</time></trkpt><trkpt lat="51.7711463012" lon="-2.0986772608"><ele>245.75</ele><time>2015-06-03T11:15:09Z</time></trkpt><trkpt lat="51.7710874602" lon="-2.0984871592"><ele>248.16</ele><time>2015-06-03T11:15:31Z</time></trkpt><trkpt lat="51.7710963450" lon="-2.0984393824"><ele>245.75</ele><time>2015-06-03T11:15:36Z</time></trkpt><trkpt lat="51.7710950878" lon="-2.0984311681"><ele>249.60</ele><time>2015-06-03T11:15:37Z</time></trkpt><trkpt lat="51.7710945010" lon="-2.0984269772"><ele>245.27</ele><time>2015-06-03T11:15:38Z</time></trkpt><trkpt lat="51.7711039726" lon="-2.0984364487"><ele>244.79</ele><time>2015-06-03T11:15:42Z</time></trkpt><trkpt lat="51.7711172998" lon="-2.0984352753"><ele>248.16</ele><time>2015-06-03T11:15:44Z</time></trkpt><trkpt lat="51.7711309623" lon="-2.0984278992"><ele>246.72</ele><time>2015-06-03T11:15:46Z</time></trkpt><trkpt lat="51.7711687647" lon="-2.0984561462"><ele>246.23</ele><time>2015-06-03T11:16:04Z</time></trkpt><trkpt lat="51.7712058127" lon="-2.0984000713"><ele>246.23</ele><time>2015-06-03T11:16:12Z</time></trkpt><trkpt lat="51.7712237500" lon="-2.0983546413"><ele>252.96</ele><time>2015-06-03T11:16:22Z</time></trkpt><trkpt lat="51.7712236661" lon="-2.0983544737"><ele>244.79</ele><time>2015-06-03T11:16:23Z</time></trkpt><trkpt lat="51.7712290306" lon="-2.0983543899"><ele>248.16</ele><time>2015-06-03T11:16:24Z</time></trkpt><trkpt lat="51.7712420225" lon="-2.0983036794"><ele>248.16</ele><time>2015-06-03T11:16:44Z</time></trkpt><trkpt lat="51.7712767236" lon="-2.0982458442"><ele>242.87</ele><time>2015-06-03T11:17:00Z</time></trkpt><trkpt lat="51.7712805793" lon="-2.0982538071"><ele>247.20</ele><time>2015-06-03T11:17:01Z</time></trkpt><trkpt lat="51.7713408452" lon="-2.0982336905"><ele>242.39</ele><time>2015-06-03T11:17:13Z</time></trkpt><trkpt lat="51.7713461258" lon="-2.0982195251"><ele>247.68</ele><time>2015-06-03T11:17:14Z</time></trkpt><trkpt lat="51.7713601235" lon="-2.0981932897"><ele>244.31</ele><time>2015-06-03T11:17:16Z</time></trkpt><trkpt lat="51.7713687569" lon="-2.0981887635"><ele>248.16</ele><time>2015-06-03T11:17:17Z</time></trkpt><trkpt lat="51.7713978421" lon="-2.0981772803"><ele>247.68</ele><time>2015-06-03T11:17:21Z</time></trkpt><trkpt lat="51.7714120913" lon="-2.0981722511"><ele>249.12</ele><time>2015-06-03T11:17:23Z</time></trkpt><trkpt lat="51.7714321241" lon="-2.0981524698"><ele>242.87</ele><time>2015-06-03T11:17:26Z</time></trkpt><trkpt lat="51.7714373209" lon="-2.0981452614"><ele>248.64</ele><time>2015-06-03T11:17:27Z</time></trkpt><trkpt lat="51.7714601196" lon="-2.0981268212"><ele>247.68</ele><time>2015-06-03T11:17:31Z</time></trkpt><trkpt lat="51.7714740336" lon="-2.0981095545"><ele>252.48</ele><time>2015-06-03T11:17:33Z</time></trkpt><trkpt lat="51.7714804038" lon="-2.0981010050"><ele>246.23</ele><time>2015-06-03T11:17:34Z</time></trkpt><trkpt lat="51.7715017777" lon="-2.0980828162"><ele>249.12</ele><time>2015-06-03T11:17:38Z</time></trkpt><trkpt lat="51.7715234030" lon="-2.0980678126"><ele>246.23</ele><time>2015-06-03T11:17:41Z</time></trkpt><trkpt lat="51.7715317849" lon="-2.0980606880"><ele>249.12</ele><time>2015-06-03T11:17:42Z</time></trkpt><trkpt lat="51.7715416756" lon="-2.0980539825"><ele>249.12</ele><time>2015-06-03T11:17:43Z</time></trkpt><trkpt lat="51.7715513986" lon="-2.0980454329"><ele>252.48</ele><time>2015-06-03T11:17:44Z</time></trkpt><trkpt lat="51.7715600319" lon="-2.0980373025"><ele>247.68</ele><time>2015-06-03T11:17:45Z</time></trkpt><trkpt lat="51.7715826631" lon="-2.0980189461"><ele>250.08</ele><time>2015-06-03T11:17:48Z</time></trkpt><trkpt lat="51.7716577649" lon="-2.0979595184"><ele>246.23</ele><time>2015-06-03T11:17:56Z</time></trkpt><trkpt lat="51.7716632970" lon="-2.0979541540"><ele>249.12</ele><time>2015-06-03T11:17:57Z</time></trkpt><trkpt lat="51.7716772109" lon="-2.0979342051"><ele>250.56</ele><time>2015-06-03T11:17:59Z</time></trkpt><trkpt lat="51.7717379797" lon="-2.0978815667"><ele>246.23</ele><time>2015-06-03T11:18:07Z</time></trkpt><trkpt lat="51.7717458587" lon="-2.0978754479"><ele>250.08</ele><time>2015-06-03T11:18:08Z</time></trkpt><trkpt lat="51.7717771232" lon="-2.0978666469"><ele>246.23</ele><time>2015-06-03T11:18:11Z</time></trkpt><trkpt lat="51.7717849184" lon="-2.0978657249"><ele>249.60</ele><time>2015-06-03T11:18:12Z</time></trkpt><trkpt lat="51.7717997544" lon="-2.0978565048"><ele>252.96</ele><time>2015-06-03T11:18:14Z</time></trkpt><trkpt lat="51.7718098126" lon="-2.0978531521"><ele>247.20</ele><time>2015-06-03T11:18:15Z</time></trkpt><trkpt lat="51.7718149256" lon="-2.0978489611"><ele>251.52</ele><time>2015-06-03T11:18:16Z</time></trkpt><trkpt lat="51.7718236428" lon="-2.0978429262"><ele>247.20</ele><time>2015-06-03T11:18:17Z</time></trkpt><trkpt lat="51.7718333658" lon="-2.0978321135"><ele>250.56</ele><time>2015-06-03T11:18:18Z</time></trkpt><trkpt lat="51.7718484532" lon="-2.0978132542"><ele>253.93</ele><time>2015-06-03T11:18:20Z</time></trkpt><trkpt lat="51.7718539014" lon="-2.0978089795"><ele>250.08</ele><time>2015-06-03T11:18:21Z</time></trkpt><trkpt lat="51.7718902789" lon="-2.0977847558"><ele>254.41</ele><time>2015-06-03T11:18:25Z</time></trkpt><trkpt lat="51.7718988284" lon="-2.0977732725"><ele>249.12</ele><time>2015-06-03T11:18:26Z</time></trkpt><trkpt lat="51.7719114851" lon="-2.0977740269"><ele>248.16</ele><time>2015-06-03T11:18:29Z</time></trkpt><trkpt lat="51.7719412409" lon="-2.0977487136"><ele>255.37</ele><time>2015-06-03T11:18:32Z</time></trkpt><trkpt lat="51.7719499581" lon="-2.0977412537"><ele>250.08</ele><time>2015-06-03T11:18:33Z</time></trkpt><trkpt lat="51.7719844915" lon="-2.0977138449"><ele>253.44</ele><time>2015-06-03T11:18:37Z</time></trkpt><trkpt lat="51.7719944660" lon="-2.0977054629"><ele>248.16</ele><time>2015-06-03T11:18:38Z</time></trkpt><trkpt lat="51.7720027640" lon="-2.0977007691"><ele>250.08</ele><time>2015-06-03T11:18:39Z</time></trkpt><trkpt lat="51.7720129900" lon="-2.0976924710"><ele>249.60</ele><time>2015-06-03T11:18:41Z</time></trkpt><trkpt lat="51.7720402312" lon="-2.0976694208"><ele>247.68</ele><time>2015-06-03T11:18:45Z</time></trkpt><trkpt lat="51.7720486131" lon="-2.0976648945"><ele>250.56</ele><time>2015-06-03T11:18:46Z</time></trkpt><trkpt lat="51.7720683943" lon="-2.0976568479"><ele>254.89</ele><time>2015-06-03T11:18:48Z</time></trkpt><trkpt lat="51.7720752675" lon="-2.0976519864"><ele>250.56</ele><time>2015-06-03T11:18:49Z</time></trkpt><trkpt lat="51.7720818054" lon="-2.0976462867"><ele>247.68</ele><time>2015-06-03T11:18:50Z</time></trkpt><trkpt lat="51.7721342761" lon="-2.0975945704"><ele>248.16</ele><time>2015-06-03T11:18:56Z</time></trkpt><trkpt lat="51.7721410654" lon="-2.0975899603"><ele>251.04</ele><time>2015-06-03T11:18:57Z</time></trkpt><trkpt lat="51.7721679714" lon="-2.0975776389"><ele>249.12</ele><time>2015-06-03T11:19:00Z</time></trkpt><trkpt lat="51.7721864115" lon="-2.0975757111"><ele>254.41</ele><time>2015-06-03T11:19:02Z</time></trkpt><trkpt lat="51.7721931171" lon="-2.0975723583"><ele>248.16</ele><time>2015-06-03T11:19:03Z</time></trkpt><trkpt lat="51.7721972242" lon="-2.0975723583"><ele>251.52</ele><time>2015-06-03T11:19:04Z</time></trkpt><trkpt lat="51.7722395528" lon="-2.0975341368"><ele>248.16</ele><time>2015-06-03T11:19:12Z</time></trkpt><trkpt lat="51.7722461745" lon="-2.0975282695"><ele>252.00</ele><time>2015-06-03T11:19:13Z</time></trkpt><trkpt lat="51.7722682189" lon="-2.0974959154"><ele>251.52</ele><time>2015-06-03T11:19:29Z</time></trkpt><trkpt lat="51.7722697277" lon="-2.0975009445"><ele>252.00</ele><time>2015-06-03T11:19:50Z</time></trkpt><trkpt lat="51.7722715717" lon="-2.0975002740"><ele>251.52</ele><time>2015-06-03T11:20:10Z</time></trkpt><trkpt lat="51.7722716555" lon="-2.0975008607"><ele>248.16</ele><time>2015-06-03T11:20:12Z</time></trkpt><trkpt lat="51.7722743377" lon="-2.0974918082"><ele>252.00</ele><time>2015-06-03T11:20:13Z</time></trkpt><trkpt lat="51.7723190133" lon="-2.0974636450"><ele>248.16</ele><time>2015-06-03T11:20:19Z</time></trkpt><trkpt lat="51.7723291554" lon="-2.0974583644"><ele>252.00</ele><time>2015-06-03T11:20:20Z</time></trkpt><trkpt lat="51.7723641079" lon="-2.0974354818"><ele>247.20</ele><time>2015-06-03T11:20:24Z</time></trkpt><trkpt lat="51.7723722383" lon="-2.0974291116"><ele>252.00</ele><time>2015-06-03T11:20:25Z</time></trkpt><trkpt lat="51.7723867390" lon="-2.0974124316"><ele>254.89</ele><time>2015-06-03T11:20:27Z</time></trkpt><trkpt lat="51.7723937798" lon="-2.0974058937"><ele>250.56</ele><time>2015-06-03T11:20:28Z</time></trkpt><trkpt lat="51.7724580690" lon="-2.0973728690"><ele>251.52</ele><time>2015-06-03T11:20:46Z</time></trkpt><trkpt lat="51.7724579014" lon="-2.0973725338"><ele>247.68</ele><time>2015-06-03T11:20:47Z</time></trkpt><trkpt lat="51.7724859808" lon="-2.0973603800"><ele>247.68</ele><time>2015-06-03T11:20:51Z</time></trkpt><trkpt lat="51.7724907584" lon="-2.0973563567"><ele>251.04</ele><time>2015-06-03T11:20:52Z</time></trkpt><trkpt lat="51.7725110427" lon="-2.0973405149"><ele>247.20</ele><time>2015-06-03T11:20:55Z</time></trkpt><trkpt lat="51.7725148145" lon="-2.0973340608"><ele>251.52</ele><time>2015-06-03T11:20:56Z</time></trkpt><trkpt lat="51.7725301534" lon="-2.0973114297"><ele>255.37</ele><time>2015-06-03T11:20:58Z</time></trkpt><trkpt lat="51.7725415528" lon="-2.0973011199"><ele>254.41</ele><time>2015-06-03T11:20:59Z</time></trkpt><trkpt lat="51.7725558858" lon="-2.0972913969"><ele>249.60</ele><time>2015-06-03T11:21:01Z</time></trkpt><trkpt lat="51.7725647707" lon="-2.0972888824"><ele>251.04</ele><time>2015-06-03T11:21:02Z</time></trkpt><trkpt lat="51.7725832947" lon="-2.0972731244"><ele>257.29</ele><time>2015-06-03T11:21:04Z</time></trkpt><trkpt lat="51.7725905031" lon="-2.0972636528"><ele>252.00</ele><time>2015-06-03T11:21:05Z</time></trkpt><trkpt lat="51.7725984659" lon="-2.0972576179"><ele>248.64</ele><time>2015-06-03T11:21:06Z</time></trkpt><trkpt lat="51.7726075184" lon="-2.0972516667"><ele>252.00</ele><time>2015-06-03T11:21:07Z</time></trkpt><trkpt lat="51.7726300657" lon="-2.0972392615"><ele>255.85</ele><time>2015-06-03T11:21:09Z</time></trkpt><trkpt lat="51.7726418842" lon="-2.0972363278"><ele>252.48</ele><time>2015-06-03T11:21:10Z</time></trkpt><trkpt lat="51.7726516910" lon="-2.0972345676"><ele>256.33</ele><time>2015-06-03T11:21:11Z</time></trkpt><trkpt lat="51.7726622522" lon="-2.0972336456"><ele>252.00</ele><time>2015-06-03T11:21:12Z</time></trkpt><trkpt lat="51.7727236915" lon="-2.0971891377"><ele>251.52</ele><time>2015-06-03T11:21:19Z</time></trkpt><trkpt lat="51.7727452330" lon="-2.0971711166"><ele>256.81</ele><time>2015-06-03T11:21:21Z</time></trkpt><trkpt lat="51.7727564648" lon="-2.0971596334"><ele>253.44</ele><time>2015-06-03T11:21:22Z</time></trkpt><trkpt lat="51.7727662716" lon="-2.0971535984"><ele>248.64</ele><time>2015-06-03T11:21:23Z</time></trkpt><trkpt lat="51.7727751564" lon="-2.0971497428"><ele>253.93</ele><time>2015-06-03T11:21:24Z</time></trkpt><trkpt lat="51.7727824487" lon="-2.0971408579"><ele>250.56</ele><time>2015-06-03T11:21:25Z</time></trkpt><trkpt lat="51.7728153896" lon="-2.0971092582"><ele>253.44</ele><time>2015-06-03T11:21:28Z</time></trkpt><trkpt lat="51.7728353385" lon="-2.0970956795"><ele>250.08</ele><time>2015-06-03T11:21:30Z</time></trkpt><trkpt lat="51.7728830315" lon="-2.0970805921"><ele>253.93</ele><time>2015-06-03T11:21:34Z</time></trkpt><trkpt lat="51.7728952691" lon="-2.0970723778"><ele>253.93</ele><time>2015-06-03T11:21:35Z</time></trkpt><trkpt lat="51.7729298864" lon="-2.0970397722"><ele>248.64</ele><time>2015-06-03T11:21:39Z</time></trkpt><trkpt lat="51.7729391064" lon="-2.0970306359"><ele>252.00</ele><time>2015-06-03T11:21:40Z</time></trkpt><trkpt lat="51.7729603127" lon="-2.0970121957"><ele>255.37</ele><time>2015-06-03T11:21:42Z</time></trkpt><trkpt lat="51.7729691975" lon="-2.0970085915"><ele>252.00</ele><time>2015-06-03T11:21:43Z</time></trkpt><trkpt lat="51.7729758192" lon="-2.0970077533"><ele>248.64</ele><time>2015-06-03T11:21:44Z</time></trkpt><trkpt lat="51.7729843687" lon="-2.0970045682"><ele>252.00</ele><time>2015-06-03T11:21:45Z</time></trkpt><trkpt lat="51.7730413657" lon="-2.0969510917"><ele>248.64</ele><time>2015-06-03T11:21:52Z</time></trkpt><trkpt lat="51.7731004581" lon="-2.0969147142"><ele>247.20</ele><time>2015-06-03T11:21:58Z</time></trkpt><trkpt lat="51.7731123604" lon="-2.0969092660"><ele>252.48</ele><time>2015-06-03T11:21:59Z</time></trkpt><trkpt lat="51.7731460556" lon="-2.0968716312"><ele>253.93</ele><time>2015-06-03T11:22:02Z</time></trkpt><trkpt lat="51.7731584609" lon="-2.0968609862"><ele>253.44</ele><time>2015-06-03T11:22:03Z</time></trkpt><trkpt lat="51.7731956765" lon="-2.0968391933"><ele>248.64</ele><time>2015-06-03T11:22:07Z</time></trkpt><trkpt lat="51.7732075788" lon="-2.0968333259"><ele>252.48</ele><time>2015-06-03T11:22:08Z</time></trkpt><trkpt lat="51.7732361611" lon="-2.0968018100"><ele>252.48</ele><time>2015-06-03T11:22:12Z</time></trkpt><trkpt lat="51.7732756399" lon="-2.0967678633"><ele>252.48</ele><time>2015-06-03T11:22:16Z</time></trkpt><trkpt lat="51.7733213212" lon="-2.0967349224"><ele>248.64</ele><time>2015-06-03T11:22:21Z</time></trkpt><trkpt lat="51.7733419407" lon="-2.0967101119"><ele>253.44</ele><time>2015-06-03T11:22:23Z</time></trkpt><trkpt lat="51.7733540945" lon="-2.0966993831"><ele>253.93</ele><time>2015-06-03T11:22:24Z</time></trkpt><trkpt lat="51.7733915616" lon="-2.0966785960"><ele>249.12</ele><time>2015-06-03T11:22:27Z</time></trkpt><trkpt lat="51.7734017875" lon="-2.0966739021"><ele>253.93</ele><time>2015-06-03T11:22:28Z</time></trkpt><trkpt lat="51.7734140251" lon="-2.0966667775"><ele>250.56</ele><time>2015-06-03T11:22:29Z</time></trkpt><trkpt lat="51.7734617181" lon="-2.0966262091"><ele>255.37</ele><time>2015-06-03T11:22:33Z</time></trkpt><trkpt lat="51.7734924797" lon="-2.0966043323"><ele>249.60</ele><time>2015-06-03T11:22:36Z</time></trkpt><trkpt lat="51.7735041305" lon="-2.0966003928"><ele>250.56</ele><time>2015-06-03T11:22:37Z</time></trkpt><trkpt lat="51.7735270970" lon="-2.0965934359"><ele>253.44</ele><time>2015-06-03T11:22:39Z</time></trkpt><trkpt lat="51.7736089882" lon="-2.0965397917"><ele>250.08</ele><time>2015-06-03T11:22:46Z</time></trkpt><trkpt lat="51.7736301944" lon="-2.0965247042"><ele>252.96</ele><time>2015-06-03T11:22:48Z</time></trkpt><trkpt lat="51.7736716010" lon="-2.0964995585"><ele>256.81</ele><time>2015-06-03T11:22:52Z</time></trkpt><trkpt lat="51.7736907117" lon="-2.0964883268"><ele>251.04</ele><time>2015-06-03T11:22:54Z</time></trkpt><trkpt lat="51.7737394944" lon="-2.0964561403"><ele>253.93</ele><time>2015-06-03T11:22:58Z</time></trkpt><trkpt lat="51.7737642210" lon="-2.0964423940"><ele>257.29</ele><time>2015-06-03T11:23:00Z</time></trkpt><trkpt lat="51.7737745307" lon="-2.0964370295"><ele>253.93</ele><time>2015-06-03T11:23:01Z</time></trkpt><trkpt lat="51.7737803981" lon="-2.0964333415"><ele>250.56</ele><time>2015-06-03T11:23:02Z</time></trkpt><trkpt lat="51.7738111597" lon="-2.0964193437"><ele>251.04</ele><time>2015-06-03T11:23:05Z</time></trkpt><trkpt lat="51.7738539912" lon="-2.0963885821"><ele>254.41</ele><time>2015-06-03T11:23:09Z</time></trkpt><trkpt lat="51.7738606129" lon="-2.0963851456"><ele>250.56</ele><time>2015-06-03T11:23:10Z</time></trkpt><trkpt lat="51.7738664802" lon="-2.0963785239"><ele>252.00</ele><time>2015-06-03T11:23:11Z</time></trkpt><trkpt lat="51.7739124130" lon="-2.0963408053"><ele>255.37</ele><time>2015-06-03T11:23:16Z</time></trkpt><trkpt lat="51.7739407439" lon="-2.0963117201"><ele>252.96</ele><time>2015-06-03T11:23:19Z</time></trkpt><trkpt lat="51.7739646323" lon="-2.0962835569"><ele>252.00</ele><time>2015-06-03T11:23:22Z</time></trkpt><trkpt lat="51.7739803065" lon="-2.0962697268"><ele>253.44</ele><time>2015-06-03T11:23:24Z</time></trkpt><trkpt lat="51.7740027700" lon="-2.0962478500"><ele>250.08</ele><time>2015-06-03T11:23:38Z</time></trkpt><trkpt lat="51.7740140017" lon="-2.0962257218"><ele>253.44</ele><time>2015-06-03T11:23:40Z</time></trkpt><trkpt lat="51.7740406562" lon="-2.0962046832"><ele>256.81</ele><time>2015-06-03T11:23:46Z</time></trkpt><trkpt lat="51.7740445118" lon="-2.0961981453"><ele>251.04</ele><time>2015-06-03T11:23:47Z</time></trkpt><trkpt lat="51.7740773689" lon="-2.0961545594"><ele>254.41</ele><time>2015-06-03T11:23:55Z</time></trkpt><trkpt lat="51.7740836553" lon="-2.0961414836"><ele>248.16</ele><time>2015-06-03T11:23:57Z</time></trkpt><trkpt lat="51.7741025984" lon="-2.0961030945"><ele>252.48</ele><time>2015-06-03T11:24:00Z</time></trkpt><trkpt lat="51.7741073761" lon="-2.0960897673"><ele>248.64</ele><time>2015-06-03T11:24:01Z</time></trkpt><trkpt lat="51.7741129082" lon="-2.0960772783"><ele>252.96</ele><time>2015-06-03T11:24:02Z</time></trkpt><trkpt lat="51.7741342820" lon="-2.0960302558"><ele>256.33</ele><time>2015-06-03T11:24:05Z</time></trkpt><trkpt lat="51.7741407361" lon="-2.0960171800"><ele>252.96</ele><time>2015-06-03T11:24:06Z</time></trkpt><trkpt lat="51.7742082104" lon="-2.0959218778"><ele>251.04</ele><time>2015-06-03T11:24:14Z</time></trkpt><trkpt lat="51.7742196936" lon="-2.0958956424"><ele>255.37</ele><time>2015-06-03T11:24:16Z</time></trkpt><trkpt lat="51.7742281593" lon="-2.0958779566"><ele>249.60</ele><time>2015-06-03T11:24:18Z</time></trkpt><trkpt lat="51.7742331047" lon="-2.0958690718"><ele>251.52</ele><time>2015-06-03T11:24:19Z</time></trkpt><trkpt lat="51.7742430791" lon="-2.0958441775"><ele>254.89</ele><time>2015-06-03T11:24:21Z</time></trkpt><trkpt lat="51.7742677219" lon="-2.0957970712"><ele>250.56</ele><time>2015-06-03T11:24:25Z</time></trkpt><trkpt lat="51.7742849048" lon="-2.0957767870"><ele>252.48</ele><time>2015-06-03T11:24:27Z</time></trkpt><trkpt lat="51.7743193544" lon="-2.0957278367"><ele>252.00</ele><time>2015-06-03T11:24:31Z</time></trkpt><trkpt lat="51.7743368726" lon="-2.0957166888"><ele>254.89</ele><time>2015-06-03T11:24:33Z</time></trkpt><trkpt lat="51.7743637785" lon="-2.0956684928"><ele>250.08</ele><time>2015-06-03T11:24:38Z</time></trkpt><trkpt lat="51.7743919417" lon="-2.0956389885"><ele>255.85</ele><time>2015-06-03T11:24:41Z</time></trkpt><trkpt lat="51.7744039278" lon="-2.0956300199"><ele>251.52</ele><time>2015-06-03T11:24:42Z</time></trkpt><trkpt lat="51.7744123936" lon="-2.0956198778"><ele>247.68</ele><time>2015-06-03T11:24:43Z</time></trkpt><trkpt lat="51.7744199373" lon="-2.0956079755"><ele>252.00</ele><time>2015-06-03T11:24:44Z</time></trkpt><trkpt lat="51.7744646966" lon="-2.0955428481"><ele>257.29</ele><time>2015-06-03T11:24:49Z</time></trkpt><trkpt lat="51.7744699772" lon="-2.0955310296"><ele>252.00</ele><time>2015-06-03T11:24:50Z</time></trkpt><trkpt lat="51.7745156586" lon="-2.0954543352"><ele>253.93</ele><time>2015-06-03T11:24:55Z</time></trkpt><trkpt lat="51.7745206039" lon="-2.0954459533"><ele>250.56</ele><time>2015-06-03T11:24:56Z</time></trkpt><trkpt lat="51.7745250463" lon="-2.0954406727"><ele>250.08</ele><time>2015-06-03T11:24:57Z</time></trkpt><trkpt lat="51.7745387089" lon="-2.0954220649"><ele>248.64</ele><time>2015-06-03T11:24:59Z</time></trkpt><trkpt lat="51.7745451629" lon="-2.0954077318"><ele>252.00</ele><time>2015-06-03T11:25:00Z</time></trkpt><trkpt lat="51.7745587416" lon="-2.0953820832"><ele>255.37</ele><time>2015-06-03T11:25:02Z</time></trkpt><trkpt lat="51.7745665368" lon="-2.0953688398"><ele>252.00</ele><time>2015-06-03T11:25:03Z</time></trkpt><trkpt lat="51.7745732423" lon="-2.0953549258"><ele>248.64</ele><time>2015-06-03T11:25:04Z</time></trkpt><trkpt lat="51.7745776847" lon="-2.0953409281"><ele>251.04</ele><time>2015-06-03T11:25:05Z</time></trkpt><trkpt lat="51.7745827977" lon="-2.0953296125"><ele>240.95</ele><time>2015-06-03T11:25:06Z</time></trkpt><trkpt lat="51.7745869886" lon="-2.0953202248"><ele>248.16</ele><time>2015-06-03T11:25:07Z</time></trkpt><trkpt lat="51.7745892517" lon="-2.0953059755"><ele>252.96</ele><time>2015-06-03T11:25:10Z</time></trkpt><trkpt lat="51.7746161576" lon="-2.0952518284"><ele>249.12</ele><time>2015-06-03T11:25:19Z</time></trkpt><trkpt lat="51.7746276408" lon="-2.0952356514"><ele>252.48</ele><time>2015-06-03T11:25:21Z</time></trkpt><trkpt lat="51.7746765073" lon="-2.0951458812"><ele>248.16</ele><time>2015-06-03T11:25:28Z</time></trkpt><trkpt lat="51.7746825423" lon="-2.0951329730"><ele>251.04</ele><time>2015-06-03T11:25:29Z</time></trkpt><trkpt lat="51.7746948637" lon="-2.0951093361"><ele>254.41</ele><time>2015-06-03T11:25:31Z</time></trkpt><trkpt lat="51.7747089453" lon="-2.0950915664"><ele>248.64</ele><time>2015-06-03T11:25:33Z</time></trkpt><trkpt lat="51.7747163214" lon="-2.0950873755"><ele>249.60</ele><time>2015-06-03T11:25:34Z</time></trkpt><trkpt lat="51.7747577280" lon="-2.0950393472"><ele>253.44</ele><time>2015-06-03T11:25:39Z</time></trkpt><trkpt lat="51.7747729830" lon="-2.0950280316"><ele>250.56</ele><time>2015-06-03T11:25:48Z</time></trkpt><trkpt lat="51.7747780960" lon="-2.0950270258"><ele>253.93</ele><time>2015-06-03T11:25:49Z</time></trkpt><trkpt lat="51.7747842986" lon="-2.0950250980"><ele>249.60</ele><time>2015-06-03T11:25:50Z</time></trkpt><trkpt lat="51.7747971229" lon="-2.0950090885"><ele>252.00</ele><time>2015-06-03T11:25:53Z</time></trkpt><trkpt lat="51.7748285551" lon="-2.0949634071"><ele>249.12</ele><time>2015-06-03T11:25:57Z</time></trkpt><trkpt lat="51.7748732306" lon="-2.0948619861"><ele>249.12</ele><time>2015-06-03T11:26:05Z</time></trkpt><trkpt lat="51.7749044113" lon="-2.0948146284"><ele>253.44</ele><time>2015-06-03T11:26:09Z</time></trkpt><trkpt lat="51.7749117035" lon="-2.0948039833"><ele>250.08</ele><time>2015-06-03T11:26:10Z</time></trkpt><trkpt lat="51.7749541160" lon="-2.0947527699"><ele>246.72</ele><time>2015-06-03T11:26:16Z</time></trkpt><trkpt lat="51.7749625817" lon="-2.0947416220"><ele>251.04</ele><time>2015-06-03T11:26:17Z</time></trkpt><trkpt lat="51.7750353366" lon="-2.0947493333"><ele>251.52</ele><time>2015-06-03T11:26:25Z</time></trkpt><trkpt lat="51.7750874721" lon="-2.0947854593"><ele>250.56</ele><time>2015-06-03T11:26:33Z</time></trkpt><trkpt lat="51.7752605584" lon="-2.0948551968"><ele>247.68</ele><time>2015-06-03T11:26:51Z</time></trkpt><trkpt lat="51.7752701975" lon="-2.0948493294"><ele>250.56</ele><time>2015-06-03T11:26:52Z</time></trkpt><trkpt lat="51.7753289547" lon="-2.0948724635"><ele>247.68</ele><time>2015-06-03T11:26:59Z</time></trkpt><trkpt lat="51.7753425334" lon="-2.0948805101"><ele>249.60</ele><time>2015-06-03T11:27:00Z</time></trkpt><trkpt lat="51.7753750551" lon="-2.0948878862"><ele>251.04</ele><time>2015-06-03T11:27:02Z</time></trkpt><trkpt lat="51.7754295375" lon="-2.0948683564"><ele>248.16</ele><time>2015-06-03T11:27:05Z</time></trkpt><trkpt lat="51.7754416075" lon="-2.0948594715"><ele>252.00</ele><time>2015-06-03T11:27:06Z</time></trkpt><trkpt lat="51.7754598800" lon="-2.0948487427"><ele>247.20</ele><time>2015-06-03T11:27:08Z</time></trkpt><trkpt lat="51.7755061481" lon="-2.0948173944"><ele>252.96</ele><time>2015-06-03T11:27:13Z</time></trkpt><trkpt lat="51.7755288631" lon="-2.0948073361"><ele>247.68</ele><time>2015-06-03T11:27:15Z</time></trkpt><trkpt lat="51.7756058928" lon="-2.0947407838"><ele>250.56</ele><time>2015-06-03T11:27:21Z</time></trkpt><trkpt lat="51.7756621353" lon="-2.0947034843"><ele>248.64</ele><time>2015-06-03T11:27:26Z</time></trkpt><trkpt lat="51.7756944057" lon="-2.0946738962"><ele>252.00</ele><time>2015-06-03T11:27:29Z</time></trkpt><trkpt lat="51.7757549230" lon="-2.0946236048"><ele>247.68</ele><time>2015-06-03T11:27:35Z</time></trkpt><trkpt lat="51.7757924739" lon="-2.0945863891"><ele>251.52</ele><time>2015-06-03T11:27:39Z</time></trkpt><trkpt lat="51.7758161109" lon="-2.0945692062"><ele>248.64</ele><time>2015-06-03T11:27:41Z</time></trkpt><trkpt lat="51.7758734431" lon="-2.0945200883"><ele>249.60</ele><time>2015-06-03T11:27:47Z</time></trkpt><trkpt lat="51.7759309430" lon="-2.0944746584"><ele>249.60</ele><time>2015-06-03T11:27:53Z</time></trkpt><trkpt lat="51.7759855930" lon="-2.0944215171"><ele>251.04</ele><time>2015-06-03T11:27:58Z</time></trkpt><trkpt lat="51.7760016024" lon="-2.0944080222"><ele>247.68</ele><time>2015-06-03T11:28:00Z</time></trkpt><trkpt lat="51.7760083918" lon="-2.0944006462"><ele>248.16</ele><time>2015-06-03T11:28:01Z</time></trkpt><trkpt lat="51.7760346271" lon="-2.0943713095"><ele>250.08</ele><time>2015-06-03T11:28:04Z</time></trkpt><trkpt lat="51.7760683224" lon="-2.0943439845"><ele>246.72</ele><time>2015-06-03T11:28:08Z</time></trkpt><trkpt lat="51.7760924622" lon="-2.0943284780"><ele>249.60</ele><time>2015-06-03T11:28:10Z</time></trkpt><trkpt lat="51.7762421630" lon="-2.0942177530"><ele>248.16</ele><time>2015-06-03T11:28:25Z</time></trkpt><trkpt lat="51.7762788758" lon="-2.0941872429"><ele>249.60</ele><time>2015-06-03T11:28:29Z</time></trkpt><trkpt lat="51.7763091344" lon="-2.0941553917"><ele>246.72</ele><time>2015-06-03T11:28:32Z</time></trkpt><trkpt lat="51.7763748486" lon="-2.0941084530"><ele>250.08</ele><time>2015-06-03T11:28:38Z</time></trkpt><trkpt lat="51.7763987370" lon="-2.0940802060"><ele>245.75</ele><time>2015-06-03T11:28:41Z</time></trkpt><trkpt lat="51.7764165066" lon="-2.0940589998"><ele>249.12</ele><time>2015-06-03T11:28:43Z</time></trkpt><trkpt lat="51.7764739227" lon="-2.0940015838"><ele>245.75</ele><time>2015-06-03T11:28:50Z</time></trkpt><trkpt lat="51.7764926981" lon="-2.0939798746"><ele>248.64</ele><time>2015-06-03T11:28:52Z</time></trkpt><trkpt lat="51.7765061092" lon="-2.0939684752"><ele>249.12</ele><time>2015-06-03T11:28:53Z</time></trkpt><trkpt lat="51.7765468452" lon="-2.0939400606"><ele>247.20</ele><time>2015-06-03T11:28:57Z</time></trkpt><trkpt lat="51.7766059376" lon="-2.0938919485"><ele>250.56</ele><time>2015-06-03T11:29:03Z</time></trkpt><trkpt lat="51.7766233720" lon="-2.0938784536"><ele>246.72</ele><time>2015-06-03T11:29:05Z</time></trkpt><trkpt lat="51.7766325083" lon="-2.0938699879"><ele>247.20</ele><time>2015-06-03T11:29:06Z</time></trkpt><trkpt lat="51.7766505294" lon="-2.0938540623"><ele>247.68</ele><time>2015-06-03T11:29:08Z</time></trkpt><trkpt lat="51.7767806165" lon="-2.0937232208"><ele>247.68</ele><time>2015-06-03T11:29:23Z</time></trkpt><trkpt lat="51.7768160719" lon="-2.0936886873"><ele>248.64</ele><time>2015-06-03T11:29:27Z</time></trkpt><trkpt lat="51.7768234480" lon="-2.0936851669"><ele>247.20</ele><time>2015-06-03T11:29:28Z</time></trkpt><trkpt lat="51.7768511083" lon="-2.0936617814"><ele>247.68</ele><time>2015-06-03T11:29:31Z</time></trkpt><trkpt lat="51.7769066803" lon="-2.0936373901"><ele>244.31</ele><time>2015-06-03T11:29:35Z</time></trkpt><trkpt lat="51.7769159842" lon="-2.0936326124"><ele>248.16</ele><time>2015-06-03T11:29:36Z</time></trkpt><trkpt lat="51.7769844644" lon="-2.0935486257"><ele>245.27</ele><time>2015-06-03T11:29:44Z</time></trkpt><trkpt lat="51.7771068402" lon="-2.0934095699"><ele>244.79</ele><time>2015-06-03T11:29:59Z</time></trkpt><trkpt lat="51.7772104405" lon="-2.0933270920"><ele>246.23</ele><time>2015-06-03T11:30:14Z</time></trkpt><trkpt lat="51.7772625759" lon="-2.0932796504"><ele>244.31</ele><time>2015-06-03T11:30:29Z</time></trkpt><trkpt lat="51.7772959359" lon="-2.0932594500"><ele>247.20</ele><time>2015-06-03T11:30:32Z</time></trkpt><trkpt lat="51.7773167230" lon="-2.0932509843"><ele>244.31</ele><time>2015-06-03T11:30:34Z</time></trkpt><trkpt lat="51.7773770727" lon="-2.0932079852"><ele>243.83</ele><time>2015-06-03T11:30:40Z</time></trkpt><trkpt lat="51.7774230056" lon="-2.0931664947"><ele>244.79</ele><time>2015-06-03T11:30:45Z</time></trkpt><trkpt lat="51.7774603050" lon="-2.0931449533"><ele>244.31</ele><time>2015-06-03T11:30:49Z</time></trkpt><trkpt lat="51.7775148712" lon="-2.0930960868"><ele>244.79</ele><time>2015-06-03T11:30:54Z</time></trkpt><trkpt lat="51.7776564416" lon="-2.0930490643"><ele>242.87</ele><time>2015-06-03T11:31:10Z</time></trkpt><trkpt lat="51.7776785698" lon="-2.0930370782"><ele>242.39</ele><time>2015-06-03T11:31:12Z</time></trkpt><trkpt lat="51.7777761351" lon="-2.0930074062"><ele>241.43</ele><time>2015-06-03T11:31:21Z</time></trkpt><trkpt lat="51.7779534962" lon="-2.0928862877"><ele>241.43</ele><time>2015-06-03T11:31:38Z</time></trkpt><trkpt lat="51.7779580224" lon="-2.0928731281"><ele>241.43</ele><time>2015-06-03T11:31:39Z</time></trkpt><trkpt lat="51.7780601140" lon="-2.0928172208"><ele>239.51</ele><time>2015-06-03T11:31:53Z</time></trkpt><trkpt lat="51.7780330405" lon="-2.0929253474"><ele>241.43</ele><time>2015-06-03T11:32:05Z</time></trkpt><trkpt lat="51.7780281790" lon="-2.0929330587"><ele>241.43</ele><time>2015-06-03T11:32:27Z</time></trkpt><trkpt lat="51.7780301068" lon="-2.0929402672"><ele>241.43</ele><time>2015-06-03T11:32:42Z</time></trkpt></trkseg></trk></gpx>